<?xml version="1.0" encoding="UTF-8" standalone="no" ?>
<gpx xmlns="http://www.topografix.com/GPX/1/1" xmlns:xsi="http://www.w3.org/2001/XMLSchema-instance" xsi:schemaLocation="http://www.topografix.com/GPX/1/1 http://www.topografix.com/GPX/1/1/gpx.xsd" version="1.1" creator="VisuGPX - https://www.visugpx.com">
  <metadata>
    <name>Rando des lampistes</name>
    <desc><![CDATA[Rando nocturne
Denivelé positif cumulé : 62 m
Denivelé négatif cumulé : 73 m
Altitude maxi : 65 m
Altitude mini : 40 m
Altitude moyenne : 50 m
]]></desc>
  </metadata>
  <trk>
    <name><![CDATA[2011-06-04T19:47:35Z]]></name>
    <trkseg>
      <trkpt lat="50.33238" lon="3.33711">
        <ele>51.262</ele>
        <time>2011-06-04T19:47:36Z</time>
      </trkpt>
      <trkpt lat="50.33228" lon="3.3373">
        <ele>51.354</ele>
        <time>2011-06-04T19:47:52Z</time>
      </trkpt>
      <trkpt lat="50.33223" lon="3.33761">
        <ele>51.503</ele>
        <time>2011-06-04T19:47:56Z</time>
      </trkpt>
      <trkpt lat="50.33219" lon="3.3378">
        <ele>51.68</ele>
        <time>2011-06-04T19:47:58Z</time>
      </trkpt>
      <trkpt lat="50.33216" lon="3.33801">
        <ele>51.709</ele>
        <time>2011-06-04T19:48:00Z</time>
      </trkpt>
      <trkpt lat="50.3321" lon="3.33835">
        <ele>51.499</ele>
        <time>2011-06-04T19:48:03Z</time>
      </trkpt>
      <trkpt lat="50.33206" lon="3.33858">
        <ele>51.554</ele>
        <time>2011-06-04T19:48:05Z</time>
      </trkpt>
      <trkpt lat="50.332" lon="3.3388">
        <ele>51.53</ele>
        <time>2011-06-04T19:48:07Z</time>
      </trkpt>
      <trkpt lat="50.33194" lon="3.33901">
        <ele>51.487</ele>
        <time>2011-06-04T19:48:09Z</time>
      </trkpt>
      <trkpt lat="50.33181" lon="3.33928">
        <ele>51.389</ele>
        <time>2011-06-04T19:48:12Z</time>
      </trkpt>
      <trkpt lat="50.33177" lon="3.33936">
        <ele>51.478</ele>
        <time>2011-06-04T19:48:13Z</time>
      </trkpt>
      <trkpt lat="50.33172" lon="3.33966">
        <ele>51.96</ele>
        <time>2011-06-04T19:48:16Z</time>
      </trkpt>
      <trkpt lat="50.33175" lon="3.33976">
        <ele>51.882</ele>
        <time>2011-06-04T19:48:17Z</time>
      </trkpt>
      <trkpt lat="50.3319" lon="3.34028">
        <ele>51.57</ele>
        <time>2011-06-04T19:48:22Z</time>
      </trkpt>
      <trkpt lat="50.33197" lon="3.34049">
        <ele>51.52</ele>
        <time>2011-06-04T19:48:24Z</time>
      </trkpt>
      <trkpt lat="50.33222" lon="3.34078">
        <ele>51.651</ele>
        <time>2011-06-04T19:48:28Z</time>
      </trkpt>
      <trkpt lat="50.3323" lon="3.34082">
        <ele>51.686</ele>
        <time>2011-06-04T19:48:29Z</time>
      </trkpt>
      <trkpt lat="50.33283" lon="3.3411">
        <ele>52.201</ele>
        <time>2011-06-04T19:48:35Z</time>
      </trkpt>
      <trkpt lat="50.33313" lon="3.34138">
        <ele>51.867</ele>
        <time>2011-06-04T19:48:39Z</time>
      </trkpt>
      <trkpt lat="50.33321" lon="3.34146">
        <ele>51.886</ele>
        <time>2011-06-04T19:48:40Z</time>
      </trkpt>
      <trkpt lat="50.33348" lon="3.34193">
        <ele>51.957</ele>
        <time>2011-06-04T19:48:45Z</time>
      </trkpt>
      <trkpt lat="50.33355" lon="3.34215">
        <ele>52.09</ele>
        <time>2011-06-04T19:48:47Z</time>
      </trkpt>
      <trkpt lat="50.33379" lon="3.34316">
        <ele>52.441</ele>
        <time>2011-06-04T19:48:56Z</time>
      </trkpt>
      <trkpt lat="50.33392" lon="3.34373">
        <ele>52.27</ele>
        <time>2011-06-04T19:49:02Z</time>
      </trkpt>
      <trkpt lat="50.33394" lon="3.34381">
        <ele>52.065</ele>
        <time>2011-06-04T19:49:03Z</time>
      </trkpt>
      <trkpt lat="50.33408" lon="3.34404">
        <ele>51.64</ele>
        <time>2011-06-04T19:49:07Z</time>
      </trkpt>
      <trkpt lat="50.33413" lon="3.34407">
        <ele>51.64</ele>
        <time>2011-06-04T19:49:08Z</time>
      </trkpt>
      <trkpt lat="50.33425" lon="3.34411">
        <ele>51.598</ele>
        <time>2011-06-04T19:49:10Z</time>
      </trkpt>
      <trkpt lat="50.33454" lon="3.34411">
        <ele>52.27</ele>
        <time>2011-06-04T19:49:14Z</time>
      </trkpt>
      <trkpt lat="50.3349" lon="3.3439">
        <ele>52.499</ele>
        <time>2011-06-04T19:49:19Z</time>
      </trkpt>
      <trkpt lat="50.33506" lon="3.34383">
        <ele>52.832</ele>
        <time>2011-06-04T19:49:21Z</time>
      </trkpt>
      <trkpt lat="50.33553" lon="3.34383">
        <ele>52.716</ele>
        <time>2011-06-04T19:49:27Z</time>
      </trkpt>
      <trkpt lat="50.33576" lon="3.34384">
        <ele>52.196</ele>
        <time>2011-06-04T19:49:31Z</time>
      </trkpt>
      <trkpt lat="50.3359" lon="3.34369">
        <ele>52.231</ele>
        <time>2011-06-04T19:49:35Z</time>
      </trkpt>
      <trkpt lat="50.33592" lon="3.34361">
        <ele>52.204</ele>
        <time>2011-06-04T19:49:36Z</time>
      </trkpt>
      <trkpt lat="50.33599" lon="3.34322">
        <ele>52.573</ele>
        <time>2011-06-04T19:49:40Z</time>
      </trkpt>
      <trkpt lat="50.33601" lon="3.34245">
        <ele>53.29</ele>
        <time>2011-06-04T19:49:47Z</time>
      </trkpt>
      <trkpt lat="50.33602" lon="3.34165">
        <ele>53.55</ele>
        <time>2011-06-04T19:49:54Z</time>
      </trkpt>
      <trkpt lat="50.33594" lon="3.34056">
        <ele>53.835</ele>
        <time>2011-06-04T19:50:03Z</time>
      </trkpt>
      <trkpt lat="50.33586" lon="3.33938">
        <ele>54.198</ele>
        <time>2011-06-04T19:50:13Z</time>
      </trkpt>
      <trkpt lat="50.33595" lon="3.33911">
        <ele>53.932</ele>
        <time>2011-06-04T19:50:16Z</time>
      </trkpt>
      <trkpt lat="50.33609" lon="3.33909">
        <ele>54.104</ele>
        <time>2011-06-04T19:50:18Z</time>
      </trkpt>
      <trkpt lat="50.33657" lon="3.33911">
        <ele>54.328</ele>
        <time>2011-06-04T19:50:25Z</time>
      </trkpt>
      <trkpt lat="50.33671" lon="3.3391">
        <ele>54.583</ele>
        <time>2011-06-04T19:50:27Z</time>
      </trkpt>
      <trkpt lat="50.33701" lon="3.33895">
        <ele>54.987</ele>
        <time>2011-06-04T19:50:32Z</time>
      </trkpt>
      <trkpt lat="50.33715" lon="3.33855">
        <ele>54.863</ele>
        <time>2011-06-04T19:50:36Z</time>
      </trkpt>
      <trkpt lat="50.33742" lon="3.33744">
        <ele>55.076</ele>
        <time>2011-06-04T19:50:46Z</time>
      </trkpt>
      <trkpt lat="50.33773" lon="3.33621">
        <ele>54.646</ele>
        <time>2011-06-04T19:50:57Z</time>
      </trkpt>
      <trkpt lat="50.33797" lon="3.33534">
        <ele>54.844</ele>
        <time>2011-06-04T19:51:05Z</time>
      </trkpt>
      <trkpt lat="50.33821" lon="3.33449">
        <ele>55.234</ele>
        <time>2011-06-04T19:51:13Z</time>
      </trkpt>
      <trkpt lat="50.33835" lon="3.33398">
        <ele>55.517</ele>
        <time>2011-06-04T19:51:18Z</time>
      </trkpt>
      <trkpt lat="50.33845" lon="3.33362">
        <ele>55.623</ele>
        <time>2011-06-04T19:51:22Z</time>
      </trkpt>
      <trkpt lat="50.33851" lon="3.33364">
        <ele>55.661</ele>
        <time>2011-06-04T19:51:24Z</time>
      </trkpt>
      <trkpt lat="50.33853" lon="3.33384">
        <ele>55.601</ele>
        <time>2011-06-04T19:51:27Z</time>
      </trkpt>
      <trkpt lat="50.33855" lon="3.33431">
        <ele>55.621</ele>
        <time>2011-06-04T19:51:32Z</time>
      </trkpt>
      <trkpt lat="50.33864" lon="3.3349">
        <ele>55.416</ele>
        <time>2011-06-04T19:51:38Z</time>
      </trkpt>
      <trkpt lat="50.33864" lon="3.33553">
        <ele>55.494</ele>
        <time>2011-06-04T19:51:44Z</time>
      </trkpt>
      <trkpt lat="50.33863" lon="3.33563">
        <ele>55.561</ele>
        <time>2011-06-04T19:51:45Z</time>
      </trkpt>
      <trkpt lat="50.3386" lon="3.33629">
        <ele>55.32</ele>
        <time>2011-06-04T19:51:51Z</time>
      </trkpt>
      <trkpt lat="50.33858" lon="3.33697">
        <ele>55.341</ele>
        <time>2011-06-04T19:51:57Z</time>
      </trkpt>
      <trkpt lat="50.33855" lon="3.33775">
        <ele>55.124</ele>
        <time>2011-06-04T19:52:04Z</time>
      </trkpt>
      <trkpt lat="50.33854" lon="3.33797">
        <ele>55.185</ele>
        <time>2011-06-04T19:52:06Z</time>
      </trkpt>
      <trkpt lat="50.33857" lon="3.33895">
        <ele>55.144</ele>
        <time>2011-06-04T19:52:15Z</time>
      </trkpt>
      <trkpt lat="50.33858" lon="3.34005">
        <ele>54.575</ele>
        <time>2011-06-04T19:52:25Z</time>
      </trkpt>
      <trkpt lat="50.33855" lon="3.34059">
        <ele>54.336</ele>
        <time>2011-06-04T19:52:30Z</time>
      </trkpt>
      <trkpt lat="50.33861" lon="3.34103">
        <ele>54.31</ele>
        <time>2011-06-04T19:52:34Z</time>
      </trkpt>
      <trkpt lat="50.33892" lon="3.34183">
        <ele>54.962</ele>
        <time>2011-06-04T19:52:43Z</time>
      </trkpt>
      <trkpt lat="50.33908" lon="3.34214">
        <ele>54.987</ele>
        <time>2011-06-04T19:52:47Z</time>
      </trkpt>
      <trkpt lat="50.3394" lon="3.34268">
        <ele>54.731</ele>
        <time>2011-06-04T19:52:54Z</time>
      </trkpt>
      <trkpt lat="50.33974" lon="3.34303">
        <ele>54.704</ele>
        <time>2011-06-04T19:53:00Z</time>
      </trkpt>
      <trkpt lat="50.33995" lon="3.34322">
        <ele>54.729</ele>
        <time>2011-06-04T19:53:04Z</time>
      </trkpt>
      <trkpt lat="50.34039" lon="3.34348">
        <ele>54.312</ele>
        <time>2011-06-04T19:53:11Z</time>
      </trkpt>
      <trkpt lat="50.34077" lon="3.34375">
        <ele>54.04</ele>
        <time>2011-06-04T19:53:17Z</time>
      </trkpt>
      <trkpt lat="50.34115" lon="3.34403">
        <ele>53.849</ele>
        <time>2011-06-04T19:53:23Z</time>
      </trkpt>
      <trkpt lat="50.34132" lon="3.34419">
        <ele>53.558</ele>
        <time>2011-06-04T19:53:26Z</time>
      </trkpt>
      <trkpt lat="50.34146" lon="3.34436">
        <ele>53.003</ele>
        <time>2011-06-04T19:53:30Z</time>
      </trkpt>
      <trkpt lat="50.34164" lon="3.3443">
        <ele>53.077</ele>
        <time>2011-06-04T19:53:34Z</time>
      </trkpt>
      <trkpt lat="50.34186" lon="3.34426">
        <ele>53.058</ele>
        <time>2011-06-04T19:53:38Z</time>
      </trkpt>
      <trkpt lat="50.34223" lon="3.34428">
        <ele>53.234</ele>
        <time>2011-06-04T19:53:45Z</time>
      </trkpt>
      <trkpt lat="50.34252" lon="3.34424">
        <ele>53.343</ele>
        <time>2011-06-04T19:53:51Z</time>
      </trkpt>
      <trkpt lat="50.34277" lon="3.34427">
        <ele>54.002</ele>
        <time>2011-06-04T19:53:56Z</time>
      </trkpt>
      <trkpt lat="50.34281" lon="3.34426">
        <ele>54.184</ele>
        <time>2011-06-04T19:53:57Z</time>
      </trkpt>
      <trkpt lat="50.34291" lon="3.34421">
        <ele>54.435</ele>
        <time>2011-06-04T19:53:59Z</time>
      </trkpt>
      <trkpt lat="50.34307" lon="3.34418">
        <ele>54.419</ele>
        <time>2011-06-04T19:54:02Z</time>
      </trkpt>
      <trkpt lat="50.34317" lon="3.34429">
        <ele>54.171</ele>
        <time>2011-06-04T19:54:05Z</time>
      </trkpt>
      <trkpt lat="50.34326" lon="3.34442">
        <ele>54.099</ele>
        <time>2011-06-04T19:54:08Z</time>
      </trkpt>
      <trkpt lat="50.3433" lon="3.34442">
        <ele>54.085</ele>
        <time>2011-06-04T19:54:09Z</time>
      </trkpt>
      <trkpt lat="50.3434" lon="3.34442">
        <ele>54.304</ele>
        <time>2011-06-04T19:54:11Z</time>
      </trkpt>
      <trkpt lat="50.3438" lon="3.34436">
        <ele>54.629</ele>
        <time>2011-06-04T19:54:19Z</time>
      </trkpt>
      <trkpt lat="50.34399" lon="3.3443">
        <ele>54.819</ele>
        <time>2011-06-04T19:54:23Z</time>
      </trkpt>
      <trkpt lat="50.34418" lon="3.34441">
        <ele>54.259</ele>
        <time>2011-06-04T19:54:28Z</time>
      </trkpt>
      <trkpt lat="50.34423" lon="3.3445">
        <ele>54.178</ele>
        <time>2011-06-04T19:54:30Z</time>
      </trkpt>
      <trkpt lat="50.34437" lon="3.3446">
        <ele>54.348</ele>
        <time>2011-06-04T19:54:35Z</time>
      </trkpt>
      <trkpt lat="50.34443" lon="3.34461">
        <ele>54.346</ele>
        <time>2011-06-04T19:54:40Z</time>
      </trkpt>
      <trkpt lat="50.34446" lon="3.34461">
        <ele>54.349</ele>
        <time>2011-06-04T19:54:57Z</time>
      </trkpt>
      <trkpt lat="50.34451" lon="3.34453">
        <ele>54.691</ele>
        <time>2011-06-04T19:55:02Z</time>
      </trkpt>
      <trkpt lat="50.34455" lon="3.34462">
        <ele>54.56</ele>
        <time>2011-06-04T19:55:05Z</time>
      </trkpt>
      <trkpt lat="50.34461" lon="3.3447">
        <ele>54.473</ele>
        <time>2011-06-04T19:55:09Z</time>
      </trkpt>
      <trkpt lat="50.34472" lon="3.34469">
        <ele>54.432</ele>
        <time>2011-06-04T19:55:12Z</time>
      </trkpt>
      <trkpt lat="50.3448" lon="3.34471">
        <ele>54.756</ele>
        <time>2011-06-04T19:55:14Z</time>
      </trkpt>
      <trkpt lat="50.34503" lon="3.34479">
        <ele>54.899</ele>
        <time>2011-06-04T19:55:20Z</time>
      </trkpt>
      <trkpt lat="50.34521" lon="3.34485">
        <ele>55.11</ele>
        <time>2011-06-04T19:55:24Z</time>
      </trkpt>
      <trkpt lat="50.34542" lon="3.34496">
        <ele>55.146</ele>
        <time>2011-06-04T19:55:29Z</time>
      </trkpt>
      <trkpt lat="50.34566" lon="3.34505">
        <ele>55.347</ele>
        <time>2011-06-04T19:55:34Z</time>
      </trkpt>
      <trkpt lat="50.34569" lon="3.34515">
        <ele>55.512</ele>
        <time>2011-06-04T19:55:38Z</time>
      </trkpt>
      <trkpt lat="50.34567" lon="3.34528">
        <ele>57.278</ele>
        <time>2011-06-04T19:55:42Z</time>
      </trkpt>
      <trkpt lat="50.34568" lon="3.3453">
        <ele>57.54</ele>
        <time>2011-06-04T19:55:43Z</time>
      </trkpt>
      <trkpt lat="50.34577" lon="3.34539">
        <ele>58.772</ele>
        <time>2011-06-04T19:55:47Z</time>
      </trkpt>
      <trkpt lat="50.34581" lon="3.34544">
        <ele>59.687</ele>
        <time>2011-06-04T19:55:49Z</time>
      </trkpt>
      <trkpt lat="50.34596" lon="3.34556">
        <ele>61.585</ele>
        <time>2011-06-04T19:55:54Z</time>
      </trkpt>
      <trkpt lat="50.34619" lon="3.34558">
        <ele>62.176</ele>
        <time>2011-06-04T19:56:00Z</time>
      </trkpt>
      <trkpt lat="50.34625" lon="3.34561">
        <ele>62.207</ele>
        <time>2011-06-04T19:56:02Z</time>
      </trkpt>
      <trkpt lat="50.34644" lon="3.34574">
        <ele>63.701</ele>
        <time>2011-06-04T19:56:08Z</time>
      </trkpt>
      <trkpt lat="50.34653" lon="3.34581">
        <ele>64.082</ele>
        <time>2011-06-04T19:56:11Z</time>
      </trkpt>
      <trkpt lat="50.34663" lon="3.34593">
        <ele>64.489</ele>
        <time>2011-06-04T19:56:15Z</time>
      </trkpt>
      <trkpt lat="50.34672" lon="3.34603">
        <ele>64.642</ele>
        <time>2011-06-04T19:56:18Z</time>
      </trkpt>
      <trkpt lat="50.34682" lon="3.34592">
        <ele>64.154</ele>
        <time>2011-06-04T19:56:23Z</time>
      </trkpt>
      <trkpt lat="50.34692" lon="3.34566">
        <ele>59.042</ele>
        <time>2011-06-04T19:56:27Z</time>
      </trkpt>
      <trkpt lat="50.34691" lon="3.34545">
        <ele>57.652</ele>
        <time>2011-06-04T19:56:30Z</time>
      </trkpt>
      <trkpt lat="50.34694" lon="3.34527">
        <ele>57.475</ele>
        <time>2011-06-04T19:56:33Z</time>
      </trkpt>
      <trkpt lat="50.34704" lon="3.34521">
        <ele>56.999</ele>
        <time>2011-06-04T19:56:36Z</time>
      </trkpt>
      <trkpt lat="50.34704" lon="3.34534">
        <ele>56.616</ele>
        <time>2011-06-04T19:56:39Z</time>
      </trkpt>
      <trkpt lat="50.347" lon="3.34546">
        <ele>58.145</ele>
        <time>2011-06-04T19:56:43Z</time>
      </trkpt>
      <trkpt lat="50.34705" lon="3.34562">
        <ele>58.117</ele>
        <time>2011-06-04T19:56:46Z</time>
      </trkpt>
      <trkpt lat="50.34715" lon="3.346">
        <ele>58.243</ele>
        <time>2011-06-04T19:56:52Z</time>
      </trkpt>
      <trkpt lat="50.34724" lon="3.34629">
        <ele>58.405</ele>
        <time>2011-06-04T19:56:57Z</time>
      </trkpt>
      <trkpt lat="50.34724" lon="3.34657">
        <ele>59.486</ele>
        <time>2011-06-04T19:57:02Z</time>
      </trkpt>
      <trkpt lat="50.34734" lon="3.34669">
        <ele>59.709</ele>
        <time>2011-06-04T19:57:06Z</time>
      </trkpt>
      <trkpt lat="50.34737" lon="3.34668">
        <ele>59.807</ele>
        <time>2011-06-04T19:57:07Z</time>
      </trkpt>
      <trkpt lat="50.34761" lon="3.34654">
        <ele>57.062</ele>
        <time>2011-06-04T19:57:12Z</time>
      </trkpt>
      <trkpt lat="50.34776" lon="3.3463">
        <ele>56.525</ele>
        <time>2011-06-04T19:57:17Z</time>
      </trkpt>
      <trkpt lat="50.34778" lon="3.34626">
        <ele>56.529</ele>
        <time>2011-06-04T19:57:18Z</time>
      </trkpt>
      <trkpt lat="50.34786" lon="3.34594">
        <ele>56.854</ele>
        <time>2011-06-04T19:57:23Z</time>
      </trkpt>
      <trkpt lat="50.34785" lon="3.34565">
        <ele>57.009</ele>
        <time>2011-06-04T19:57:27Z</time>
      </trkpt>
      <trkpt lat="50.3478" lon="3.34533">
        <ele>57.288</ele>
        <time>2011-06-04T19:57:32Z</time>
      </trkpt>
      <trkpt lat="50.34772" lon="3.34525">
        <ele>58.603</ele>
        <time>2011-06-04T19:57:35Z</time>
      </trkpt>
      <trkpt lat="50.34761" lon="3.34528">
        <ele>58.647</ele>
        <time>2011-06-04T19:57:38Z</time>
      </trkpt>
      <trkpt lat="50.34756" lon="3.3453">
        <ele>58.014</ele>
        <time>2011-06-04T19:57:39Z</time>
      </trkpt>
      <trkpt lat="50.34734" lon="3.34538">
        <ele>57.784</ele>
        <time>2011-06-04T19:57:44Z</time>
      </trkpt>
      <trkpt lat="50.34721" lon="3.34532">
        <ele>56.286</ele>
        <time>2011-06-04T19:57:48Z</time>
      </trkpt>
      <trkpt lat="50.34722" lon="3.34518">
        <ele>56.124</ele>
        <time>2011-06-04T19:57:50Z</time>
      </trkpt>
      <trkpt lat="50.34726" lon="3.34491">
        <ele>56.919</ele>
        <time>2011-06-04T19:57:54Z</time>
      </trkpt>
      <trkpt lat="50.34717" lon="3.34465">
        <ele>56.981</ele>
        <time>2011-06-04T19:57:58Z</time>
      </trkpt>
      <trkpt lat="50.34706" lon="3.34436">
        <ele>56.946</ele>
        <time>2011-06-04T19:58:03Z</time>
      </trkpt>
      <trkpt lat="50.34709" lon="3.3441">
        <ele>58.677</ele>
        <time>2011-06-04T19:58:08Z</time>
      </trkpt>
      <trkpt lat="50.34718" lon="3.34399">
        <ele>60.163</ele>
        <time>2011-06-04T19:58:12Z</time>
      </trkpt>
      <trkpt lat="50.34731" lon="3.34398">
        <ele>61.084</ele>
        <time>2011-06-04T19:58:16Z</time>
      </trkpt>
      <trkpt lat="50.34737" lon="3.34403">
        <ele>60.95</ele>
        <time>2011-06-04T19:58:19Z</time>
      </trkpt>
      <trkpt lat="50.34738" lon="3.34412">
        <ele>59.963</ele>
        <time>2011-06-04T19:58:21Z</time>
      </trkpt>
      <trkpt lat="50.34738" lon="3.34429">
        <ele>58.116</ele>
        <time>2011-06-04T19:58:23Z</time>
      </trkpt>
      <trkpt lat="50.34745" lon="3.34447">
        <ele>56.573</ele>
        <time>2011-06-04T19:58:26Z</time>
      </trkpt>
      <trkpt lat="50.3476" lon="3.34447">
        <ele>56.786</ele>
        <time>2011-06-04T19:58:30Z</time>
      </trkpt>
      <trkpt lat="50.34768" lon="3.34434">
        <ele>56.625</ele>
        <time>2011-06-04T19:58:33Z</time>
      </trkpt>
      <trkpt lat="50.3477" lon="3.34425">
        <ele>56.618</ele>
        <time>2011-06-04T19:58:35Z</time>
      </trkpt>
      <trkpt lat="50.34771" lon="3.34417">
        <ele>58.76</ele>
        <time>2011-06-04T19:58:40Z</time>
      </trkpt>
      <trkpt lat="50.34773" lon="3.34412">
        <ele>60.05</ele>
        <time>2011-06-04T19:58:43Z</time>
      </trkpt>
      <trkpt lat="50.34775" lon="3.34411">
        <ele>60.61</ele>
        <time>2011-06-04T19:58:46Z</time>
      </trkpt>
      <trkpt lat="50.34783" lon="3.34415">
        <ele>60.847</ele>
        <time>2011-06-04T19:58:51Z</time>
      </trkpt>
      <trkpt lat="50.34805" lon="3.34424">
        <ele>60.979</ele>
        <time>2011-06-04T19:58:58Z</time>
      </trkpt>
      <trkpt lat="50.34813" lon="3.34433">
        <ele>60.606</ele>
        <time>2011-06-04T19:59:00Z</time>
      </trkpt>
      <trkpt lat="50.34828" lon="3.34448">
        <ele>58.771</ele>
        <time>2011-06-04T19:59:03Z</time>
      </trkpt>
      <trkpt lat="50.3484" lon="3.34453">
        <ele>57.817</ele>
        <time>2011-06-04T19:59:05Z</time>
      </trkpt>
      <trkpt lat="50.34857" lon="3.34452">
        <ele>57.134</ele>
        <time>2011-06-04T19:59:08Z</time>
      </trkpt>
      <trkpt lat="50.34875" lon="3.34447">
        <ele>56.105</ele>
        <time>2011-06-04T19:59:12Z</time>
      </trkpt>
      <trkpt lat="50.34879" lon="3.34432">
        <ele>54.73</ele>
        <time>2011-06-04T19:59:16Z</time>
      </trkpt>
      <trkpt lat="50.34867" lon="3.34421">
        <ele>54.492</ele>
        <time>2011-06-04T19:59:20Z</time>
      </trkpt>
      <trkpt lat="50.34863" lon="3.34413">
        <ele>54.534</ele>
        <time>2011-06-04T19:59:22Z</time>
      </trkpt>
      <trkpt lat="50.34861" lon="3.34388">
        <ele>53.139</ele>
        <time>2011-06-04T19:59:25Z</time>
      </trkpt>
      <trkpt lat="50.34861" lon="3.34365">
        <ele>52.805</ele>
        <time>2011-06-04T19:59:28Z</time>
      </trkpt>
      <trkpt lat="50.34851" lon="3.34354">
        <ele>52.841</ele>
        <time>2011-06-04T19:59:32Z</time>
      </trkpt>
      <trkpt lat="50.34838" lon="3.34349">
        <ele>52.972</ele>
        <time>2011-06-04T19:59:35Z</time>
      </trkpt>
      <trkpt lat="50.34826" lon="3.34324">
        <ele>53.278</ele>
        <time>2011-06-04T19:59:39Z</time>
      </trkpt>
      <trkpt lat="50.34826" lon="3.34306">
        <ele>53.452</ele>
        <time>2011-06-04T19:59:41Z</time>
      </trkpt>
      <trkpt lat="50.34827" lon="3.34251">
        <ele>53.538</ele>
        <time>2011-06-04T19:59:47Z</time>
      </trkpt>
      <trkpt lat="50.34833" lon="3.34225">
        <ele>53.728</ele>
        <time>2011-06-04T19:59:51Z</time>
      </trkpt>
      <trkpt lat="50.34849" lon="3.34222">
        <ele>53.877</ele>
        <time>2011-06-04T19:59:54Z</time>
      </trkpt>
      <trkpt lat="50.34894" lon="3.34232">
        <ele>53.6</ele>
        <time>2011-06-04T20:00:02Z</time>
      </trkpt>
      <trkpt lat="50.34942" lon="3.3425">
        <ele>52.932</ele>
        <time>2011-06-04T20:00:10Z</time>
      </trkpt>
      <trkpt lat="50.35008" lon="3.3428">
        <ele>52.24</ele>
        <time>2011-06-04T20:00:21Z</time>
      </trkpt>
      <trkpt lat="50.35063" lon="3.34296">
        <ele>52.033</ele>
        <time>2011-06-04T20:00:30Z</time>
      </trkpt>
      <trkpt lat="50.35132" lon="3.34317">
        <ele>51.389</ele>
        <time>2011-06-04T20:00:41Z</time>
      </trkpt>
      <trkpt lat="50.35203" lon="3.3434">
        <ele>50.377</ele>
        <time>2011-06-04T20:00:52Z</time>
      </trkpt>
      <trkpt lat="50.3528" lon="3.34369">
        <ele>49.741</ele>
        <time>2011-06-04T20:01:04Z</time>
      </trkpt>
      <trkpt lat="50.35354" lon="3.34407">
        <ele>49.004</ele>
        <time>2011-06-04T20:01:16Z</time>
      </trkpt>
      <trkpt lat="50.3542" lon="3.34451">
        <ele>48.697</ele>
        <time>2011-06-04T20:01:28Z</time>
      </trkpt>
      <trkpt lat="50.35468" lon="3.34493">
        <ele>48.458</ele>
        <time>2011-06-04T20:01:37Z</time>
      </trkpt>
      <trkpt lat="50.35503" lon="3.34529">
        <ele>48.23</ele>
        <time>2011-06-04T20:01:44Z</time>
      </trkpt>
      <trkpt lat="50.35536" lon="3.34553">
        <ele>47.403</ele>
        <time>2011-06-04T20:01:50Z</time>
      </trkpt>
      <trkpt lat="50.35594" lon="3.34592">
        <ele>46.779</ele>
        <time>2011-06-04T20:02:00Z</time>
      </trkpt>
      <trkpt lat="50.35653" lon="3.34632">
        <ele>46.118</ele>
        <time>2011-06-04T20:02:10Z</time>
      </trkpt>
      <trkpt lat="50.35706" lon="3.34675">
        <ele>44.94</ele>
        <time>2011-06-04T20:02:19Z</time>
      </trkpt>
      <trkpt lat="50.35744" lon="3.34695">
        <ele>44.246</ele>
        <time>2011-06-04T20:02:25Z</time>
      </trkpt>
      <trkpt lat="50.35788" lon="3.34716">
        <ele>43.544</ele>
        <time>2011-06-04T20:02:32Z</time>
      </trkpt>
      <trkpt lat="50.35837" lon="3.34747">
        <ele>42.919</ele>
        <time>2011-06-04T20:02:40Z</time>
      </trkpt>
      <trkpt lat="50.35866" lon="3.3477">
        <ele>42.354</ele>
        <time>2011-06-04T20:02:45Z</time>
      </trkpt>
      <trkpt lat="50.35881" lon="3.34766">
        <ele>41.203</ele>
        <time>2011-06-04T20:02:49Z</time>
      </trkpt>
      <trkpt lat="50.35883" lon="3.34746">
        <ele>40.96</ele>
        <time>2011-06-04T20:02:52Z</time>
      </trkpt>
      <trkpt lat="50.35878" lon="3.3468">
        <ele>41.716</ele>
        <time>2011-06-04T20:03:00Z</time>
      </trkpt>
      <trkpt lat="50.3588" lon="3.34607">
        <ele>41.943</ele>
        <time>2011-06-04T20:03:08Z</time>
      </trkpt>
      <trkpt lat="50.35886" lon="3.34543">
        <ele>41.948</ele>
        <time>2011-06-04T20:03:15Z</time>
      </trkpt>
      <trkpt lat="50.35894" lon="3.34471">
        <ele>42.644</ele>
        <time>2011-06-04T20:03:23Z</time>
      </trkpt>
      <trkpt lat="50.35901" lon="3.34396">
        <ele>42.877</ele>
        <time>2011-06-04T20:03:31Z</time>
      </trkpt>
      <trkpt lat="50.35911" lon="3.34313">
        <ele>43.155</ele>
        <time>2011-06-04T20:03:40Z</time>
      </trkpt>
      <trkpt lat="50.35922" lon="3.34229">
        <ele>43.106</ele>
        <time>2011-06-04T20:03:49Z</time>
      </trkpt>
      <trkpt lat="50.3593" lon="3.34132">
        <ele>43.283</ele>
        <time>2011-06-04T20:03:59Z</time>
      </trkpt>
      <trkpt lat="50.35935" lon="3.34032">
        <ele>43.306</ele>
        <time>2011-06-04T20:04:09Z</time>
      </trkpt>
      <trkpt lat="50.35939" lon="3.33942">
        <ele>43.592</ele>
        <time>2011-06-04T20:04:18Z</time>
      </trkpt>
      <trkpt lat="50.3594" lon="3.33843">
        <ele>43.693</ele>
        <time>2011-06-04T20:04:28Z</time>
      </trkpt>
      <trkpt lat="50.35937" lon="3.33735">
        <ele>44.012</ele>
        <time>2011-06-04T20:04:39Z</time>
      </trkpt>
      <trkpt lat="50.35926" lon="3.33661">
        <ele>44.355</ele>
        <time>2011-06-04T20:04:47Z</time>
      </trkpt>
      <trkpt lat="50.35914" lon="3.33571">
        <ele>45.093</ele>
        <time>2011-06-04T20:04:57Z</time>
      </trkpt>
      <trkpt lat="50.3591" lon="3.33545">
        <ele>45.205</ele>
        <time>2011-06-04T20:05:00Z</time>
      </trkpt>
      <trkpt lat="50.35901" lon="3.33522">
        <ele>44.806</ele>
        <time>2011-06-04T20:05:04Z</time>
      </trkpt>
      <trkpt lat="50.35892" lon="3.33523">
        <ele>44.733</ele>
        <time>2011-06-04T20:05:06Z</time>
      </trkpt>
      <trkpt lat="50.35842" lon="3.33536">
        <ele>45.844</ele>
        <time>2011-06-04T20:05:15Z</time>
      </trkpt>
      <trkpt lat="50.35788" lon="3.33547">
        <ele>45.904</ele>
        <time>2011-06-04T20:05:24Z</time>
      </trkpt>
      <trkpt lat="50.35738" lon="3.33543">
        <ele>46.598</ele>
        <time>2011-06-04T20:05:32Z</time>
      </trkpt>
      <trkpt lat="50.35658" lon="3.33534">
        <ele>47.342</ele>
        <time>2011-06-04T20:05:45Z</time>
      </trkpt>
      <trkpt lat="50.35615" lon="3.33536">
        <ele>47.717</ele>
        <time>2011-06-04T20:05:52Z</time>
      </trkpt>
      <trkpt lat="50.35567" lon="3.33554">
        <ele>48.539</ele>
        <time>2011-06-04T20:06:00Z</time>
      </trkpt>
      <trkpt lat="50.35543" lon="3.33564">
        <ele>48.797</ele>
        <time>2011-06-04T20:06:04Z</time>
      </trkpt>
      <trkpt lat="50.35503" lon="3.33579">
        <ele>48.869</ele>
        <time>2011-06-04T20:06:11Z</time>
      </trkpt>
      <trkpt lat="50.35491" lon="3.33572">
        <ele>48.554</ele>
        <time>2011-06-04T20:06:15Z</time>
      </trkpt>
      <trkpt lat="50.35497" lon="3.33556">
        <ele>48.549</ele>
        <time>2011-06-04T20:06:18Z</time>
      </trkpt>
      <trkpt lat="50.35526" lon="3.33518">
        <ele>48.726</ele>
        <time>2011-06-04T20:06:25Z</time>
      </trkpt>
      <trkpt lat="50.35556" lon="3.33459">
        <ele>47.934</ele>
        <time>2011-06-04T20:06:33Z</time>
      </trkpt>
      <trkpt lat="50.35585" lon="3.33382">
        <ele>48.061</ele>
        <time>2011-06-04T20:06:42Z</time>
      </trkpt>
      <trkpt lat="50.35611" lon="3.33295">
        <ele>48.221</ele>
        <time>2011-06-04T20:06:52Z</time>
      </trkpt>
      <trkpt lat="50.35626" lon="3.3323">
        <ele>48.113</ele>
        <time>2011-06-04T20:06:59Z</time>
      </trkpt>
      <trkpt lat="50.35638" lon="3.33162">
        <ele>47.978</ele>
        <time>2011-06-04T20:07:06Z</time>
      </trkpt>
      <trkpt lat="50.3564" lon="3.33153">
        <ele>48.037</ele>
        <time>2011-06-04T20:07:07Z</time>
      </trkpt>
      <trkpt lat="50.35651" lon="3.33058">
        <ele>47.859</ele>
        <time>2011-06-04T20:07:17Z</time>
      </trkpt>
      <trkpt lat="50.35658" lon="3.32964">
        <ele>47.186</ele>
        <time>2011-06-04T20:07:26Z</time>
      </trkpt>
      <trkpt lat="50.3566" lon="3.32856">
        <ele>46.336</ele>
        <time>2011-06-04T20:07:36Z</time>
      </trkpt>
      <trkpt lat="50.35661" lon="3.32756">
        <ele>45.345</ele>
        <time>2011-06-04T20:07:45Z</time>
      </trkpt>
      <trkpt lat="50.35662" lon="3.32658">
        <ele>44.515</ele>
        <time>2011-06-04T20:07:54Z</time>
      </trkpt>
      <trkpt lat="50.35663" lon="3.32568">
        <ele>43.545</ele>
        <time>2011-06-04T20:08:02Z</time>
      </trkpt>
      <trkpt lat="50.35663" lon="3.32451">
        <ele>43.108</ele>
        <time>2011-06-04T20:08:13Z</time>
      </trkpt>
      <trkpt lat="50.35663" lon="3.32331">
        <ele>42.467</ele>
        <time>2011-06-04T20:08:25Z</time>
      </trkpt>
      <trkpt lat="50.35664" lon="3.32254">
        <ele>42.455</ele>
        <time>2011-06-04T20:08:33Z</time>
      </trkpt>
      <trkpt lat="50.35666" lon="3.32159">
        <ele>42.226</ele>
        <time>2011-06-04T20:08:43Z</time>
      </trkpt>
      <trkpt lat="50.35673" lon="3.32081">
        <ele>42.118</ele>
        <time>2011-06-04T20:08:51Z</time>
      </trkpt>
      <trkpt lat="50.35682" lon="3.32024">
        <ele>41.993</ele>
        <time>2011-06-04T20:08:57Z</time>
      </trkpt>
      <trkpt lat="50.35689" lon="3.31979">
        <ele>41.661</ele>
        <time>2011-06-04T20:09:02Z</time>
      </trkpt>
      <trkpt lat="50.35694" lon="3.31949">
        <ele>41.754</ele>
        <time>2011-06-04T20:09:06Z</time>
      </trkpt>
      <trkpt lat="50.35691" lon="3.31906">
        <ele>41.64</ele>
        <time>2011-06-04T20:09:11Z</time>
      </trkpt>
      <trkpt lat="50.35688" lon="3.31862">
        <ele>41.203</ele>
        <time>2011-06-04T20:09:16Z</time>
      </trkpt>
      <trkpt lat="50.35679" lon="3.31845">
        <ele>40.617</ele>
        <time>2011-06-04T20:09:20Z</time>
      </trkpt>
      <trkpt lat="50.35675" lon="3.31845">
        <ele>40.568</ele>
        <time>2011-06-04T20:09:21Z</time>
      </trkpt>
      <trkpt lat="50.35621" lon="3.31851">
        <ele>41.313</ele>
        <time>2011-06-04T20:09:31Z</time>
      </trkpt>
      <trkpt lat="50.35571" lon="3.31851">
        <ele>41.978</ele>
        <time>2011-06-04T20:09:40Z</time>
      </trkpt>
      <trkpt lat="50.35531" lon="3.31847">
        <ele>42.559</ele>
        <time>2011-06-04T20:09:47Z</time>
      </trkpt>
      <trkpt lat="50.35496" lon="3.31842">
        <ele>43.358</ele>
        <time>2011-06-04T20:09:53Z</time>
      </trkpt>
      <trkpt lat="50.35438" lon="3.31836">
        <ele>44.373</ele>
        <time>2011-06-04T20:10:03Z</time>
      </trkpt>
      <trkpt lat="50.35363" lon="3.31832">
        <ele>46.056</ele>
        <time>2011-06-04T20:10:16Z</time>
      </trkpt>
      <trkpt lat="50.3531" lon="3.31829">
        <ele>46.585</ele>
        <time>2011-06-04T20:10:25Z</time>
      </trkpt>
      <trkpt lat="50.3525" lon="3.31831">
        <ele>47.504</ele>
        <time>2011-06-04T20:10:35Z</time>
      </trkpt>
      <trkpt lat="50.35209" lon="3.31846">
        <ele>48.105</ele>
        <time>2011-06-04T20:10:42Z</time>
      </trkpt>
      <trkpt lat="50.35162" lon="3.31862">
        <ele>48.492</ele>
        <time>2011-06-04T20:10:50Z</time>
      </trkpt>
      <trkpt lat="50.35105" lon="3.31884">
        <ele>49.07</ele>
        <time>2011-06-04T20:11:00Z</time>
      </trkpt>
      <trkpt lat="50.35043" lon="3.31905">
        <ele>50.129</ele>
        <time>2011-06-04T20:11:11Z</time>
      </trkpt>
      <trkpt lat="50.35" lon="3.31923">
        <ele>50.859</ele>
        <time>2011-06-04T20:11:19Z</time>
      </trkpt>
      <trkpt lat="50.34954" lon="3.3195">
        <ele>51.602</ele>
        <time>2011-06-04T20:11:28Z</time>
      </trkpt>
      <trkpt lat="50.34899" lon="3.31981">
        <ele>52.634</ele>
        <time>2011-06-04T20:11:38Z</time>
      </trkpt>
      <trkpt lat="50.34833" lon="3.32017">
        <ele>53.404</ele>
        <time>2011-06-04T20:11:50Z</time>
      </trkpt>
      <trkpt lat="50.34778" lon="3.32047">
        <ele>53.788</ele>
        <time>2011-06-04T20:12:00Z</time>
      </trkpt>
      <trkpt lat="50.34726" lon="3.32081">
        <ele>54.27</ele>
        <time>2011-06-04T20:12:10Z</time>
      </trkpt>
      <trkpt lat="50.34675" lon="3.32117">
        <ele>54.987</ele>
        <time>2011-06-04T20:12:20Z</time>
      </trkpt>
      <trkpt lat="50.34623" lon="3.32151">
        <ele>55.647</ele>
        <time>2011-06-04T20:12:30Z</time>
      </trkpt>
      <trkpt lat="50.34571" lon="3.32184">
        <ele>56.337</ele>
        <time>2011-06-04T20:12:40Z</time>
      </trkpt>
      <trkpt lat="50.34529" lon="3.3221">
        <ele>56.842</ele>
        <time>2011-06-04T20:12:48Z</time>
      </trkpt>
      <trkpt lat="50.34476" lon="3.32244">
        <ele>57.421</ele>
        <time>2011-06-04T20:12:58Z</time>
      </trkpt>
      <trkpt lat="50.34451" lon="3.32282">
        <ele>57.685</ele>
        <time>2011-06-04T20:13:04Z</time>
      </trkpt>
      <trkpt lat="50.34428" lon="3.32325">
        <ele>57.804</ele>
        <time>2011-06-04T20:13:10Z</time>
      </trkpt>
      <trkpt lat="50.3439" lon="3.32373">
        <ele>57.677</ele>
        <time>2011-06-04T20:13:18Z</time>
      </trkpt>
      <trkpt lat="50.34347" lon="3.32412">
        <ele>57.907</ele>
        <time>2011-06-04T20:13:26Z</time>
      </trkpt>
      <trkpt lat="50.34298" lon="3.32453">
        <ele>57.809</ele>
        <time>2011-06-04T20:13:35Z</time>
      </trkpt>
      <trkpt lat="50.3423" lon="3.32503">
        <ele>57.583</ele>
        <time>2011-06-04T20:13:47Z</time>
      </trkpt>
      <trkpt lat="50.34169" lon="3.32548">
        <ele>57.944</ele>
        <time>2011-06-04T20:13:58Z</time>
      </trkpt>
      <trkpt lat="50.34153" lon="3.3256">
        <ele>57.631</ele>
        <time>2011-06-04T20:14:01Z</time>
      </trkpt>
      <trkpt lat="50.34143" lon="3.32571">
        <ele>57.494</ele>
        <time>2011-06-04T20:14:03Z</time>
      </trkpt>
      <trkpt lat="50.34127" lon="3.32578">
        <ele>56.981</ele>
        <time>2011-06-04T20:14:07Z</time>
      </trkpt>
      <trkpt lat="50.34124" lon="3.32572">
        <ele>57.132</ele>
        <time>2011-06-04T20:14:09Z</time>
      </trkpt>
      <trkpt lat="50.3412" lon="3.32544">
        <ele>57.366</ele>
        <time>2011-06-04T20:14:14Z</time>
      </trkpt>
      <trkpt lat="50.34109" lon="3.32506">
        <ele>57.377</ele>
        <time>2011-06-04T20:14:19Z</time>
      </trkpt>
      <trkpt lat="50.34096" lon="3.32486">
        <ele>58.003</ele>
        <time>2011-06-04T20:14:23Z</time>
      </trkpt>
      <trkpt lat="50.34092" lon="3.32486">
        <ele>58.132</ele>
        <time>2011-06-04T20:14:24Z</time>
      </trkpt>
      <trkpt lat="50.34083" lon="3.32487">
        <ele>58.57</ele>
        <time>2011-06-04T20:14:26Z</time>
      </trkpt>
      <trkpt lat="50.3406" lon="3.32474">
        <ele>58.673</ele>
        <time>2011-06-04T20:14:31Z</time>
      </trkpt>
      <trkpt lat="50.34051" lon="3.32463">
        <ele>59.17</ele>
        <time>2011-06-04T20:14:34Z</time>
      </trkpt>
      <trkpt lat="50.34036" lon="3.32467">
        <ele>58.146</ele>
        <time>2011-06-04T20:14:38Z</time>
      </trkpt>
      <trkpt lat="50.34031" lon="3.32469">
        <ele>57.928</ele>
        <time>2011-06-04T20:14:39Z</time>
      </trkpt>
      <trkpt lat="50.34" lon="3.3248">
        <ele>57.696</ele>
        <time>2011-06-04T20:14:45Z</time>
      </trkpt>
      <trkpt lat="50.3398" lon="3.325">
        <ele>57.721</ele>
        <time>2011-06-04T20:14:49Z</time>
      </trkpt>
      <trkpt lat="50.33963" lon="3.32525">
        <ele>57.671</ele>
        <time>2011-06-04T20:14:53Z</time>
      </trkpt>
      <trkpt lat="50.33925" lon="3.32563">
        <ele>57.079</ele>
        <time>2011-06-04T20:15:00Z</time>
      </trkpt>
      <trkpt lat="50.33907" lon="3.32577">
        <ele>56.632</ele>
        <time>2011-06-04T20:15:03Z</time>
      </trkpt>
      <trkpt lat="50.3388" lon="3.32591">
        <ele>56.381</ele>
        <time>2011-06-04T20:15:07Z</time>
      </trkpt>
      <trkpt lat="50.33859" lon="3.32585">
        <ele>55.627</ele>
        <time>2011-06-04T20:15:11Z</time>
      </trkpt>
      <trkpt lat="50.33852" lon="3.32563">
        <ele>55.636</ele>
        <time>2011-06-04T20:15:14Z</time>
      </trkpt>
      <trkpt lat="50.33851" lon="3.32554">
        <ele>55.659</ele>
        <time>2011-06-04T20:15:15Z</time>
      </trkpt>
      <trkpt lat="50.33852" lon="3.32481">
        <ele>56.115</ele>
        <time>2011-06-04T20:15:23Z</time>
      </trkpt>
      <trkpt lat="50.33854" lon="3.32396">
        <ele>56.513</ele>
        <time>2011-06-04T20:15:32Z</time>
      </trkpt>
      <trkpt lat="50.33853" lon="3.32359">
        <ele>56.649</ele>
        <time>2011-06-04T20:15:36Z</time>
      </trkpt>
      <trkpt lat="50.33851" lon="3.32341">
        <ele>56.813</ele>
        <time>2011-06-04T20:15:38Z</time>
      </trkpt>
      <trkpt lat="50.33846" lon="3.32259">
        <ele>57.101</ele>
        <time>2011-06-04T20:15:47Z</time>
      </trkpt>
      <trkpt lat="50.33845" lon="3.3225">
        <ele>56.987</ele>
        <time>2011-06-04T20:15:48Z</time>
      </trkpt>
      <trkpt lat="50.33846" lon="3.32216">
        <ele>57.24</ele>
        <time>2011-06-04T20:15:52Z</time>
      </trkpt>
      <trkpt lat="50.33843" lon="3.32199">
        <ele>56.952</ele>
        <time>2011-06-04T20:15:55Z</time>
      </trkpt>
      <trkpt lat="50.33835" lon="3.32201">
        <ele>56.871</ele>
        <time>2011-06-04T20:15:57Z</time>
      </trkpt>
      <trkpt lat="50.33811" lon="3.32217">
        <ele>56.541</ele>
        <time>2011-06-04T20:16:03Z</time>
      </trkpt>
      <trkpt lat="50.33808" lon="3.32218">
        <ele>56.178</ele>
        <time>2011-06-04T20:16:04Z</time>
      </trkpt>
      <trkpt lat="50.33799" lon="3.32229">
        <ele>54.633</ele>
        <time>2011-06-04T20:16:07Z</time>
      </trkpt>
      <trkpt lat="50.33799" lon="3.32251">
        <ele>54.469</ele>
        <time>2011-06-04T20:16:10Z</time>
      </trkpt>
      <trkpt lat="50.33802" lon="3.32321">
        <ele>54.262</ele>
        <time>2011-06-04T20:16:18Z</time>
      </trkpt>
      <trkpt lat="50.33805" lon="3.32399">
        <ele>54.067</ele>
        <time>2011-06-04T20:16:26Z</time>
      </trkpt>
      <trkpt lat="50.33807" lon="3.3249">
        <ele>53.84</ele>
        <time>2011-06-04T20:16:35Z</time>
      </trkpt>
      <trkpt lat="50.33811" lon="3.32541">
        <ele>54.33</ele>
        <time>2011-06-04T20:16:40Z</time>
      </trkpt>
      <trkpt lat="50.33814" lon="3.32634">
        <ele>54.477</ele>
        <time>2011-06-04T20:16:48Z</time>
      </trkpt>
      <trkpt lat="50.33818" lon="3.3273">
        <ele>54.766</ele>
        <time>2011-06-04T20:16:57Z</time>
      </trkpt>
      <trkpt lat="50.33819" lon="3.3274">
        <ele>54.778</ele>
        <time>2011-06-04T20:16:58Z</time>
      </trkpt>
      <trkpt lat="50.33823" lon="3.32806">
        <ele>54.176</ele>
        <time>2011-06-04T20:17:04Z</time>
      </trkpt>
      <trkpt lat="50.33827" lon="3.32928">
        <ele>53.721</ele>
        <time>2011-06-04T20:17:15Z</time>
      </trkpt>
      <trkpt lat="50.33832" lon="3.33058">
        <ele>53.497</ele>
        <time>2011-06-04T20:17:27Z</time>
      </trkpt>
      <trkpt lat="50.33836" lon="3.3316">
        <ele>53.262</ele>
        <time>2011-06-04T20:17:36Z</time>
      </trkpt>
      <trkpt lat="50.33839" lon="3.33219">
        <ele>52.981</ele>
        <time>2011-06-04T20:17:42Z</time>
      </trkpt>
      <trkpt lat="50.3383" lon="3.33215">
        <ele>52.195</ele>
        <time>2011-06-04T20:17:46Z</time>
      </trkpt>
      <trkpt lat="50.33827" lon="3.332">
        <ele>52.087</ele>
        <time>2011-06-04T20:17:48Z</time>
      </trkpt>
      <trkpt lat="50.33808" lon="3.33139">
        <ele>52.318</ele>
        <time>2011-06-04T20:17:54Z</time>
      </trkpt>
      <trkpt lat="50.33781" lon="3.3308">
        <ele>51.918</ele>
        <time>2011-06-04T20:18:00Z</time>
      </trkpt>
      <trkpt lat="50.33765" lon="3.33053">
        <ele>51.733</ele>
        <time>2011-06-04T20:18:03Z</time>
      </trkpt>
      <trkpt lat="50.33709" lon="3.32987">
        <ele>51.279</ele>
        <time>2011-06-04T20:18:12Z</time>
      </trkpt>
      <trkpt lat="50.33665" lon="3.32955">
        <ele>50.936</ele>
        <time>2011-06-04T20:18:18Z</time>
      </trkpt>
      <trkpt lat="50.33619" lon="3.32936">
        <ele>50.576</ele>
        <time>2011-06-04T20:18:24Z</time>
      </trkpt>
      <trkpt lat="50.33571" lon="3.3293">
        <ele>50.192</ele>
        <time>2011-06-04T20:18:30Z</time>
      </trkpt>
      <trkpt lat="50.3353" lon="3.32938">
        <ele>49.83</ele>
        <time>2011-06-04T20:18:36Z</time>
      </trkpt>
      <trkpt lat="50.33522" lon="3.32942">
        <ele>49.698</ele>
        <time>2011-06-04T20:18:38Z</time>
      </trkpt>
      <trkpt lat="50.33512" lon="3.32933">
        <ele>50.011</ele>
        <time>2011-06-04T20:18:42Z</time>
      </trkpt>
      <trkpt lat="50.33498" lon="3.32894">
        <ele>49.907</ele>
        <time>2011-06-04T20:18:48Z</time>
      </trkpt>
      <trkpt lat="50.33477" lon="3.32836">
        <ele>49.547</ele>
        <time>2011-06-04T20:18:55Z</time>
      </trkpt>
      <trkpt lat="50.33454" lon="3.3276">
        <ele>49.785</ele>
        <time>2011-06-04T20:19:04Z</time>
      </trkpt>
      <trkpt lat="50.33432" lon="3.32686">
        <ele>50.645</ele>
        <time>2011-06-04T20:19:13Z</time>
      </trkpt>
      <trkpt lat="50.3342" lon="3.32643">
        <ele>51.864</ele>
        <time>2011-06-04T20:19:19Z</time>
      </trkpt>
      <trkpt lat="50.33406" lon="3.32601">
        <ele>53.143</ele>
        <time>2011-06-04T20:19:25Z</time>
      </trkpt>
      <trkpt lat="50.33391" lon="3.32554">
        <ele>54.533</ele>
        <time>2011-06-04T20:19:32Z</time>
      </trkpt>
      <trkpt lat="50.33389" lon="3.32548">
        <ele>54.77</ele>
        <time>2011-06-04T20:19:33Z</time>
      </trkpt>
      <trkpt lat="50.33381" lon="3.3252">
        <ele>55.793</ele>
        <time>2011-06-04T20:19:37Z</time>
      </trkpt>
      <trkpt lat="50.33375" lon="3.32501">
        <ele>56.271</ele>
        <time>2011-06-04T20:19:40Z</time>
      </trkpt>
      <trkpt lat="50.33356" lon="3.3242">
        <ele>57.809</ele>
        <time>2011-06-04T20:19:51Z</time>
      </trkpt>
      <trkpt lat="50.33342" lon="3.32349">
        <ele>57.75</ele>
        <time>2011-06-04T20:19:59Z</time>
      </trkpt>
      <trkpt lat="50.33339" lon="3.3233">
        <ele>57.526</ele>
        <time>2011-06-04T20:20:01Z</time>
      </trkpt>
      <trkpt lat="50.33327" lon="3.32268">
        <ele>56.193</ele>
        <time>2011-06-04T20:20:07Z</time>
      </trkpt>
      <trkpt lat="50.33316" lon="3.32194">
        <ele>54.239</ele>
        <time>2011-06-04T20:20:13Z</time>
      </trkpt>
      <trkpt lat="50.3331" lon="3.32132">
        <ele>53.329</ele>
        <time>2011-06-04T20:20:18Z</time>
      </trkpt>
      <trkpt lat="50.33298" lon="3.32024">
        <ele>54.058</ele>
        <time>2011-06-04T20:20:27Z</time>
      </trkpt>
      <trkpt lat="50.33286" lon="3.31924">
        <ele>54.534</ele>
        <time>2011-06-04T20:20:35Z</time>
      </trkpt>
      <trkpt lat="50.33275" lon="3.31832">
        <ele>55.677</ele>
        <time>2011-06-04T20:20:43Z</time>
      </trkpt>
      <trkpt lat="50.33265" lon="3.31767">
        <ele>56.543</ele>
        <time>2011-06-04T20:20:49Z</time>
      </trkpt>
      <trkpt lat="50.33235" lon="3.31683">
        <ele>57.367</ele>
        <time>2011-06-04T20:20:58Z</time>
      </trkpt>
      <trkpt lat="50.33207" lon="3.31636">
        <ele>57.823</ele>
        <time>2011-06-04T20:21:04Z</time>
      </trkpt>
      <trkpt lat="50.33178" lon="3.31609">
        <ele>58.158</ele>
        <time>2011-06-04T20:21:09Z</time>
      </trkpt>
      <trkpt lat="50.33141" lon="3.31589">
        <ele>58.117</ele>
        <time>2011-06-04T20:21:15Z</time>
      </trkpt>
      <trkpt lat="50.33125" lon="3.31581">
        <ele>58.085</ele>
        <time>2011-06-04T20:21:18Z</time>
      </trkpt>
      <trkpt lat="50.33119" lon="3.31567">
        <ele>58.188</ele>
        <time>2011-06-04T20:21:21Z</time>
      </trkpt>
      <trkpt lat="50.33125" lon="3.31545">
        <ele>58.277</ele>
        <time>2011-06-04T20:21:24Z</time>
      </trkpt>
      <trkpt lat="50.33138" lon="3.31477">
        <ele>59.067</ele>
        <time>2011-06-04T20:21:31Z</time>
      </trkpt>
      <trkpt lat="50.33153" lon="3.31397">
        <ele>59.717</ele>
        <time>2011-06-04T20:21:39Z</time>
      </trkpt>
      <trkpt lat="50.3317" lon="3.31298">
        <ele>60.637</ele>
        <time>2011-06-04T20:21:49Z</time>
      </trkpt>
      <trkpt lat="50.33179" lon="3.31218">
        <ele>60.987</ele>
        <time>2011-06-04T20:21:57Z</time>
      </trkpt>
      <trkpt lat="50.3318" lon="3.3121">
        <ele>60.993</ele>
        <time>2011-06-04T20:21:58Z</time>
      </trkpt>
      <trkpt lat="50.33173" lon="3.31182">
        <ele>61.019</ele>
        <time>2011-06-04T20:22:02Z</time>
      </trkpt>
      <trkpt lat="50.33158" lon="3.31175">
        <ele>61.579</ele>
        <time>2011-06-04T20:22:05Z</time>
      </trkpt>
      <trkpt lat="50.33153" lon="3.31175">
        <ele>61.695</ele>
        <time>2011-06-04T20:22:06Z</time>
      </trkpt>
      <trkpt lat="50.33108" lon="3.31173">
        <ele>62.403</ele>
        <time>2011-06-04T20:22:13Z</time>
      </trkpt>
      <trkpt lat="50.33069" lon="3.31173">
        <ele>62.438</ele>
        <time>2011-06-04T20:22:19Z</time>
      </trkpt>
      <trkpt lat="50.33011" lon="3.31172">
        <ele>62.871</ele>
        <time>2011-06-04T20:22:28Z</time>
      </trkpt>
      <trkpt lat="50.32955" lon="3.31171">
        <ele>62.987</ele>
        <time>2011-06-04T20:22:36Z</time>
      </trkpt>
      <trkpt lat="50.32916" lon="3.31161">
        <ele>62.905</ele>
        <time>2011-06-04T20:22:42Z</time>
      </trkpt>
      <trkpt lat="50.32874" lon="3.31132">
        <ele>63.236</ele>
        <time>2011-06-04T20:22:49Z</time>
      </trkpt>
      <trkpt lat="50.32817" lon="3.31088">
        <ele>63.816</ele>
        <time>2011-06-04T20:22:59Z</time>
      </trkpt>
      <trkpt lat="50.3278" lon="3.31053">
        <ele>64.412</ele>
        <time>2011-06-04T20:23:06Z</time>
      </trkpt>
      <trkpt lat="50.32745" lon="3.31023">
        <ele>64.427</ele>
        <time>2011-06-04T20:23:12Z</time>
      </trkpt>
      <trkpt lat="50.32712" lon="3.31006">
        <ele>64.357</ele>
        <time>2011-06-04T20:23:17Z</time>
      </trkpt>
      <trkpt lat="50.32678" lon="3.31003">
        <ele>64.509</ele>
        <time>2011-06-04T20:23:22Z</time>
      </trkpt>
      <trkpt lat="50.32637" lon="3.31029">
        <ele>65.214</ele>
        <time>2011-06-04T20:23:29Z</time>
      </trkpt>
      <trkpt lat="50.3261" lon="3.31061">
        <ele>65.666</ele>
        <time>2011-06-04T20:23:34Z</time>
      </trkpt>
      <trkpt lat="50.32593" lon="3.31106">
        <ele>65.876</ele>
        <time>2011-06-04T20:23:39Z</time>
      </trkpt>
      <trkpt lat="50.32582" lon="3.31142">
        <ele>65.738</ele>
        <time>2011-06-04T20:23:44Z</time>
      </trkpt>
      <trkpt lat="50.32585" lon="3.31171">
        <ele>65.931</ele>
        <time>2011-06-04T20:23:47Z</time>
      </trkpt>
      <trkpt lat="50.32591" lon="3.31252">
        <ele>65.789</ele>
        <time>2011-06-04T20:23:54Z</time>
      </trkpt>
      <trkpt lat="50.32598" lon="3.3132">
        <ele>65.209</ele>
        <time>2011-06-04T20:24:00Z</time>
      </trkpt>
      <trkpt lat="50.32606" lon="3.31389">
        <ele>65.087</ele>
        <time>2011-06-04T20:24:06Z</time>
      </trkpt>
      <trkpt lat="50.32607" lon="3.314">
        <ele>64.838</ele>
        <time>2011-06-04T20:24:07Z</time>
      </trkpt>
      <trkpt lat="50.32612" lon="3.31472">
        <ele>64.236</ele>
        <time>2011-06-04T20:24:13Z</time>
      </trkpt>
      <trkpt lat="50.32618" lon="3.31544">
        <ele>64.381</ele>
        <time>2011-06-04T20:24:19Z</time>
      </trkpt>
      <trkpt lat="50.32621" lon="3.31594">
        <ele>63.946</ele>
        <time>2011-06-04T20:24:23Z</time>
      </trkpt>
      <trkpt lat="50.3262" lon="3.31619">
        <ele>63.785</ele>
        <time>2011-06-04T20:24:25Z</time>
      </trkpt>
      <trkpt lat="50.32626" lon="3.31722">
        <ele>62.989</ele>
        <time>2011-06-04T20:24:33Z</time>
      </trkpt>
      <trkpt lat="50.3263" lon="3.31811">
        <ele>62.51</ele>
        <time>2011-06-04T20:24:40Z</time>
      </trkpt>
      <trkpt lat="50.32626" lon="3.31886">
        <ele>62.316</ele>
        <time>2011-06-04T20:24:46Z</time>
      </trkpt>
      <trkpt lat="50.32616" lon="3.31959">
        <ele>61.931</ele>
        <time>2011-06-04T20:24:52Z</time>
      </trkpt>
      <trkpt lat="50.32607" lon="3.32016">
        <ele>61.201</ele>
        <time>2011-06-04T20:24:57Z</time>
      </trkpt>
      <trkpt lat="50.32594" lon="3.32082">
        <ele>61.005</ele>
        <time>2011-06-04T20:25:02Z</time>
      </trkpt>
      <trkpt lat="50.32582" lon="3.32172">
        <ele>60.543</ele>
        <time>2011-06-04T20:25:09Z</time>
      </trkpt>
      <trkpt lat="50.32579" lon="3.32227">
        <ele>60.583</ele>
        <time>2011-06-04T20:25:13Z</time>
      </trkpt>
      <trkpt lat="50.3258" lon="3.32315">
        <ele>60.05</ele>
        <time>2011-06-04T20:25:19Z</time>
      </trkpt>
      <trkpt lat="50.3258" lon="3.32415">
        <ele>59.735</ele>
        <time>2011-06-04T20:25:26Z</time>
      </trkpt>
      <trkpt lat="50.32579" lon="3.32528">
        <ele>58.348</ele>
        <time>2011-06-04T20:25:34Z</time>
      </trkpt>
      <trkpt lat="50.32574" lon="3.32622">
        <ele>57.708</ele>
        <time>2011-06-04T20:25:41Z</time>
      </trkpt>
      <trkpt lat="50.32569" lon="3.32699">
        <ele>57.409</ele>
        <time>2011-06-04T20:25:47Z</time>
      </trkpt>
      <trkpt lat="50.32563" lon="3.32737">
        <ele>57.172</ele>
        <time>2011-06-04T20:25:50Z</time>
      </trkpt>
      <trkpt lat="50.32558" lon="3.32776">
        <ele>56.865</ele>
        <time>2011-06-04T20:25:53Z</time>
      </trkpt>
      <trkpt lat="50.32556" lon="3.32801">
        <ele>56.631</ele>
        <time>2011-06-04T20:25:55Z</time>
      </trkpt>
      <trkpt lat="50.32548" lon="3.32864">
        <ele>56.239</ele>
        <time>2011-06-04T20:26:00Z</time>
      </trkpt>
      <trkpt lat="50.32535" lon="3.3298">
        <ele>56.105</ele>
        <time>2011-06-04T20:26:09Z</time>
      </trkpt>
      <trkpt lat="50.32525" lon="3.33067">
        <ele>56.413</ele>
        <time>2011-06-04T20:26:16Z</time>
      </trkpt>
      <trkpt lat="50.32521" lon="3.33102">
        <ele>56.094</ele>
        <time>2011-06-04T20:26:20Z</time>
      </trkpt>
      <trkpt lat="50.32514" lon="3.33119">
        <ele>55.025</ele>
        <time>2011-06-04T20:26:24Z</time>
      </trkpt>
      <trkpt lat="50.32501" lon="3.33139">
        <ele>51.19</ele>
        <time>2011-06-04T20:26:29Z</time>
      </trkpt>
      <trkpt lat="50.32498" lon="3.33142">
        <ele>50.516</ele>
        <time>2011-06-04T20:26:30Z</time>
      </trkpt>
      <trkpt lat="50.3248" lon="3.33133">
        <ele>49.605</ele>
        <time>2011-06-04T20:26:34Z</time>
      </trkpt>
      <trkpt lat="50.32474" lon="3.33128">
        <ele>49.56</ele>
        <time>2011-06-04T20:26:35Z</time>
      </trkpt>
      <trkpt lat="50.32451" lon="3.33111">
        <ele>49.477</ele>
        <time>2011-06-04T20:26:39Z</time>
      </trkpt>
      <trkpt lat="50.32424" lon="3.33099">
        <ele>48.863</ele>
        <time>2011-06-04T20:26:43Z</time>
      </trkpt>
      <trkpt lat="50.32375" lon="3.3307">
        <ele>48.309</ele>
        <time>2011-06-04T20:26:51Z</time>
      </trkpt>
      <trkpt lat="50.3235" lon="3.33048">
        <ele>48.146</ele>
        <time>2011-06-04T20:26:56Z</time>
      </trkpt>
      <trkpt lat="50.32306" lon="3.33001">
        <ele>47.739</ele>
        <time>2011-06-04T20:27:03Z</time>
      </trkpt>
      <trkpt lat="50.32256" lon="3.32948">
        <ele>47.678</ele>
        <time>2011-06-04T20:27:11Z</time>
      </trkpt>
      <trkpt lat="50.32234" lon="3.32924">
        <ele>48.198</ele>
        <time>2011-06-04T20:27:15Z</time>
      </trkpt>
      <trkpt lat="50.32193" lon="3.32881">
        <ele>48.607</ele>
        <time>2011-06-04T20:27:22Z</time>
      </trkpt>
      <trkpt lat="50.32137" lon="3.32822">
        <ele>49.693</ele>
        <time>2011-06-04T20:27:32Z</time>
      </trkpt>
      <trkpt lat="50.32098" lon="3.32781">
        <ele>50.099</ele>
        <time>2011-06-04T20:27:39Z</time>
      </trkpt>
      <trkpt lat="50.32045" lon="3.32725">
        <ele>50.625</ele>
        <time>2011-06-04T20:27:48Z</time>
      </trkpt>
      <trkpt lat="50.31998" lon="3.32677">
        <ele>51.088</ele>
        <time>2011-06-04T20:27:56Z</time>
      </trkpt>
      <trkpt lat="50.31965" lon="3.32635">
        <ele>50.984</ele>
        <time>2011-06-04T20:28:02Z</time>
      </trkpt>
      <trkpt lat="50.31923" lon="3.32568">
        <ele>51.14</ele>
        <time>2011-06-04T20:28:10Z</time>
      </trkpt>
      <trkpt lat="50.31879" lon="3.32504">
        <ele>51.29</ele>
        <time>2011-06-04T20:28:18Z</time>
      </trkpt>
      <trkpt lat="50.31824" lon="3.32435">
        <ele>51.448</ele>
        <time>2011-06-04T20:28:28Z</time>
      </trkpt>
      <trkpt lat="50.31802" lon="3.32404">
        <ele>51.458</ele>
        <time>2011-06-04T20:28:33Z</time>
      </trkpt>
      <trkpt lat="50.31772" lon="3.32353">
        <ele>51.866</ele>
        <time>2011-06-04T20:28:40Z</time>
      </trkpt>
      <trkpt lat="50.31727" lon="3.32281">
        <ele>52.751</ele>
        <time>2011-06-04T20:28:50Z</time>
      </trkpt>
      <trkpt lat="50.31692" lon="3.32224">
        <ele>53.711</ele>
        <time>2011-06-04T20:28:58Z</time>
      </trkpt>
      <trkpt lat="50.31652" lon="3.32159">
        <ele>54.951</ele>
        <time>2011-06-04T20:29:07Z</time>
      </trkpt>
      <trkpt lat="50.31612" lon="3.32094">
        <ele>56.143</ele>
        <time>2011-06-04T20:29:16Z</time>
      </trkpt>
      <trkpt lat="50.3157" lon="3.32027">
        <ele>57.117</ele>
        <time>2011-06-04T20:29:25Z</time>
      </trkpt>
      <trkpt lat="50.31522" lon="3.31951">
        <ele>57.381</ele>
        <time>2011-06-04T20:29:35Z</time>
      </trkpt>
      <trkpt lat="50.31467" lon="3.31864">
        <ele>57.371</ele>
        <time>2011-06-04T20:29:46Z</time>
      </trkpt>
      <trkpt lat="50.31425" lon="3.31797">
        <ele>56.6</ele>
        <time>2011-06-04T20:29:54Z</time>
      </trkpt>
      <trkpt lat="50.31375" lon="3.31717">
        <ele>55.602</ele>
        <time>2011-06-04T20:30:03Z</time>
      </trkpt>
      <trkpt lat="50.31313" lon="3.31617">
        <ele>54.581</ele>
        <time>2011-06-04T20:30:14Z</time>
      </trkpt>
      <trkpt lat="50.31255" lon="3.31524">
        <ele>54.92</ele>
        <time>2011-06-04T20:30:25Z</time>
      </trkpt>
      <trkpt lat="50.3125" lon="3.31516">
        <ele>54.978</ele>
        <time>2011-06-04T20:30:26Z</time>
      </trkpt>
      <trkpt lat="50.31219" lon="3.3144">
        <ele>55.329</ele>
        <time>2011-06-04T20:30:34Z</time>
      </trkpt>
      <trkpt lat="50.3118" lon="3.31343">
        <ele>55.481</ele>
        <time>2011-06-04T20:30:44Z</time>
      </trkpt>
      <trkpt lat="50.31151" lon="3.31278">
        <ele>55.934</ele>
        <time>2011-06-04T20:30:51Z</time>
      </trkpt>
      <trkpt lat="50.31117" lon="3.31209">
        <ele>56.89</ele>
        <time>2011-06-04T20:30:59Z</time>
      </trkpt>
      <trkpt lat="50.31081" lon="3.31129">
        <ele>56.687</ele>
        <time>2011-06-04T20:31:08Z</time>
      </trkpt>
      <trkpt lat="50.31043" lon="3.31044">
        <ele>56.347</ele>
        <time>2011-06-04T20:31:17Z</time>
      </trkpt>
      <trkpt lat="50.31006" lon="3.30965">
        <ele>55.589</ele>
        <time>2011-06-04T20:31:25Z</time>
      </trkpt>
      <trkpt lat="50.30955" lon="3.3086">
        <ele>54.12</ele>
        <time>2011-06-04T20:31:35Z</time>
      </trkpt>
      <trkpt lat="50.30904" lon="3.30749">
        <ele>53.046</ele>
        <time>2011-06-04T20:31:45Z</time>
      </trkpt>
      <trkpt lat="50.3086" lon="3.30641">
        <ele>52.007</ele>
        <time>2011-06-04T20:31:54Z</time>
      </trkpt>
      <trkpt lat="50.30853" lon="3.30618">
        <ele>51.297</ele>
        <time>2011-06-04T20:31:57Z</time>
      </trkpt>
      <trkpt lat="50.30859" lon="3.30626">
        <ele>51.268</ele>
        <time>2011-06-04T20:32:01Z</time>
      </trkpt>
      <trkpt lat="50.30869" lon="3.3064">
        <ele>51.409</ele>
        <time>2011-06-04T20:32:06Z</time>
      </trkpt>
      <trkpt lat="50.30877" lon="3.30646">
        <ele>51.544</ele>
        <time>2011-06-04T20:32:08Z</time>
      </trkpt>
      <trkpt lat="50.30889" lon="3.30654">
        <ele>51.82</ele>
        <time>2011-06-04T20:32:11Z</time>
      </trkpt>
      <trkpt lat="50.30908" lon="3.30655">
        <ele>52.034</ele>
        <time>2011-06-04T20:32:15Z</time>
      </trkpt>
      <trkpt lat="50.30948" lon="3.3064">
        <ele>52.75</ele>
        <time>2011-06-04T20:32:23Z</time>
      </trkpt>
      <trkpt lat="50.30995" lon="3.30619">
        <ele>53.322</ele>
        <time>2011-06-04T20:32:32Z</time>
      </trkpt>
      <trkpt lat="50.31056" lon="3.30589">
        <ele>54.657</ele>
        <time>2011-06-04T20:32:44Z</time>
      </trkpt>
      <trkpt lat="50.31108" lon="3.30565">
        <ele>55.522</ele>
        <time>2011-06-04T20:32:54Z</time>
      </trkpt>
      <trkpt lat="50.3116" lon="3.30535">
        <ele>56.491</ele>
        <time>2011-06-04T20:33:04Z</time>
      </trkpt>
      <trkpt lat="50.31212" lon="3.30499">
        <ele>57.279</ele>
        <time>2011-06-04T20:33:14Z</time>
      </trkpt>
      <trkpt lat="50.31241" lon="3.30476">
        <ele>57.697</ele>
        <time>2011-06-04T20:33:20Z</time>
      </trkpt>
      <trkpt lat="50.31252" lon="3.3045">
        <ele>58.075</ele>
        <time>2011-06-04T20:33:24Z</time>
      </trkpt>
      <trkpt lat="50.31246" lon="3.3043">
        <ele>58.805</ele>
        <time>2011-06-04T20:33:27Z</time>
      </trkpt>
      <trkpt lat="50.3124" lon="3.30417">
        <ele>59.016</ele>
        <time>2011-06-04T20:33:29Z</time>
      </trkpt>
      <trkpt lat="50.31215" lon="3.30352">
        <ele>58.584</ele>
        <time>2011-06-04T20:33:37Z</time>
      </trkpt>
      <trkpt lat="50.31193" lon="3.30292">
        <ele>59.063</ele>
        <time>2011-06-04T20:33:44Z</time>
      </trkpt>
      <trkpt lat="50.31166" lon="3.3022">
        <ele>58.597</ele>
        <time>2011-06-04T20:33:52Z</time>
      </trkpt>
      <trkpt lat="50.31138" lon="3.30148">
        <ele>58.012</ele>
        <time>2011-06-04T20:34:00Z</time>
      </trkpt>
      <trkpt lat="50.31114" lon="3.30083">
        <ele>59.34</ele>
        <time>2011-06-04T20:34:08Z</time>
      </trkpt>
      <trkpt lat="50.31094" lon="3.30026">
        <ele>60.09</ele>
        <time>2011-06-04T20:34:15Z</time>
      </trkpt>
      <trkpt lat="50.31076" lon="3.29965">
        <ele>59.528</ele>
        <time>2011-06-04T20:34:22Z</time>
      </trkpt>
      <trkpt lat="50.31054" lon="3.29894">
        <ele>60.473</ele>
        <time>2011-06-04T20:34:31Z</time>
      </trkpt>
      <trkpt lat="50.31028" lon="3.29808">
        <ele>60.797</ele>
        <time>2011-06-04T20:34:41Z</time>
      </trkpt>
      <trkpt lat="50.31007" lon="3.29747">
        <ele>61.497</ele>
        <time>2011-06-04T20:34:48Z</time>
      </trkpt>
      <trkpt lat="50.30977" lon="3.2968">
        <ele>61.265</ele>
        <time>2011-06-04T20:34:56Z</time>
      </trkpt>
      <trkpt lat="50.30931" lon="3.29582">
        <ele>60.507</ele>
        <time>2011-06-04T20:35:07Z</time>
      </trkpt>
      <trkpt lat="50.30889" lon="3.2949">
        <ele>59.667</ele>
        <time>2011-06-04T20:35:17Z</time>
      </trkpt>
      <trkpt lat="50.30874" lon="3.29458">
        <ele>58.903</ele>
        <time>2011-06-04T20:35:21Z</time>
      </trkpt>
      <trkpt lat="50.30859" lon="3.29444">
        <ele>57.738</ele>
        <time>2011-06-04T20:35:25Z</time>
      </trkpt>
      <trkpt lat="50.30848" lon="3.29456">
        <ele>57.62</ele>
        <time>2011-06-04T20:35:28Z</time>
      </trkpt>
      <trkpt lat="50.30846" lon="3.29463">
        <ele>57.67</ele>
        <time>2011-06-04T20:35:29Z</time>
      </trkpt>
      <trkpt lat="50.30832" lon="3.29519">
        <ele>57.635</ele>
        <time>2011-06-04T20:35:35Z</time>
      </trkpt>
      <trkpt lat="50.30815" lon="3.29585">
        <ele>56.337</ele>
        <time>2011-06-04T20:35:41Z</time>
      </trkpt>
      <trkpt lat="50.30789" lon="3.29676">
        <ele>54.775</ele>
        <time>2011-06-04T20:35:49Z</time>
      </trkpt>
      <trkpt lat="50.30757" lon="3.29766">
        <ele>53.297</ele>
        <time>2011-06-04T20:35:57Z</time>
      </trkpt>
      <trkpt lat="50.3074" lon="3.29817">
        <ele>52.379</ele>
        <time>2011-06-04T20:36:02Z</time>
      </trkpt>
      <trkpt lat="50.30718" lon="3.29879">
        <ele>51.949</ele>
        <time>2011-06-04T20:36:08Z</time>
      </trkpt>
      <trkpt lat="50.30679" lon="3.29966">
        <ele>51.335</ele>
        <time>2011-06-04T20:36:17Z</time>
      </trkpt>
      <trkpt lat="50.3065" lon="3.30014">
        <ele>50.797</ele>
        <time>2011-06-04T20:36:23Z</time>
      </trkpt>
      <trkpt lat="50.30622" lon="3.3006">
        <ele>50.227</ele>
        <time>2011-06-04T20:36:29Z</time>
      </trkpt>
      <trkpt lat="50.30606" lon="3.30106">
        <ele>49.311</ele>
        <time>2011-06-04T20:36:34Z</time>
      </trkpt>
      <trkpt lat="50.30602" lon="3.30114">
        <ele>49.118</ele>
        <time>2011-06-04T20:36:35Z</time>
      </trkpt>
      <trkpt lat="50.30568" lon="3.30155">
        <ele>48.79</ele>
        <time>2011-06-04T20:36:41Z</time>
      </trkpt>
      <trkpt lat="50.3053" lon="3.30196">
        <ele>48.383</ele>
        <time>2011-06-04T20:36:47Z</time>
      </trkpt>
      <trkpt lat="50.30477" lon="3.30235">
        <ele>48.507</ele>
        <time>2011-06-04T20:36:55Z</time>
      </trkpt>
      <trkpt lat="50.30471" lon="3.30239">
        <ele>48.538</ele>
        <time>2011-06-04T20:36:56Z</time>
      </trkpt>
      <trkpt lat="50.30451" lon="3.30263">
        <ele>48.431</ele>
        <time>2011-06-04T20:37:00Z</time>
      </trkpt>
      <trkpt lat="50.30412" lon="3.30331">
        <ele>48.297</ele>
        <time>2011-06-04T20:37:09Z</time>
      </trkpt>
      <trkpt lat="50.30378" lon="3.30385">
        <ele>47.903</ele>
        <time>2011-06-04T20:37:16Z</time>
      </trkpt>
      <trkpt lat="50.30349" lon="3.30433">
        <ele>47.947</ele>
        <time>2011-06-04T20:37:22Z</time>
      </trkpt>
      <trkpt lat="50.30339" lon="3.30448">
        <ele>47.943</ele>
        <time>2011-06-04T20:37:24Z</time>
      </trkpt>
      <trkpt lat="50.30333" lon="3.30477">
        <ele>48.375</ele>
        <time>2011-06-04T20:37:28Z</time>
      </trkpt>
      <trkpt lat="50.30343" lon="3.30527">
        <ele>48.279</ele>
        <time>2011-06-04T20:37:34Z</time>
      </trkpt>
      <trkpt lat="50.30365" lon="3.30608">
        <ele>48.501</ele>
        <time>2011-06-04T20:37:43Z</time>
      </trkpt>
      <trkpt lat="50.30385" lon="3.3068">
        <ele>48.09</ele>
        <time>2011-06-04T20:37:51Z</time>
      </trkpt>
      <trkpt lat="50.30399" lon="3.30739">
        <ele>47.637</ele>
        <time>2011-06-04T20:37:58Z</time>
      </trkpt>
      <trkpt lat="50.30401" lon="3.30746">
        <ele>47.617</ele>
        <time>2011-06-04T20:37:59Z</time>
      </trkpt>
      <trkpt lat="50.30416" lon="3.30768">
        <ele>47.061</ele>
        <time>2011-06-04T20:38:03Z</time>
      </trkpt>
      <trkpt lat="50.30426" lon="3.30778">
        <ele>47.295</ele>
        <time>2011-06-04T20:38:05Z</time>
      </trkpt>
      <trkpt lat="50.3044" lon="3.30796">
        <ele>47.449</ele>
        <time>2011-06-04T20:38:08Z</time>
      </trkpt>
      <trkpt lat="50.30455" lon="3.30837">
        <ele>47.301</ele>
        <time>2011-06-04T20:38:13Z</time>
      </trkpt>
      <trkpt lat="50.30456" lon="3.30846">
        <ele>47.365</ele>
        <time>2011-06-04T20:38:14Z</time>
      </trkpt>
      <trkpt lat="50.30462" lon="3.3094">
        <ele>47.729</ele>
        <time>2011-06-04T20:38:24Z</time>
      </trkpt>
      <trkpt lat="50.30468" lon="3.31025">
        <ele>48.273</ele>
        <time>2011-06-04T20:38:33Z</time>
      </trkpt>
      <trkpt lat="50.30472" lon="3.31099">
        <ele>48.584</ele>
        <time>2011-06-04T20:38:41Z</time>
      </trkpt>
      <trkpt lat="50.30476" lon="3.31156">
        <ele>48.726</ele>
        <time>2011-06-04T20:38:47Z</time>
      </trkpt>
      <trkpt lat="50.30488" lon="3.31222">
        <ele>48.84</ele>
        <time>2011-06-04T20:38:54Z</time>
      </trkpt>
      <trkpt lat="50.30506" lon="3.31311">
        <ele>49.895</ele>
        <time>2011-06-04T20:39:03Z</time>
      </trkpt>
      <trkpt lat="50.30529" lon="3.31421">
        <ele>51.402</ele>
        <time>2011-06-04T20:39:14Z</time>
      </trkpt>
      <trkpt lat="50.30544" lon="3.31491">
        <ele>52.406</ele>
        <time>2011-06-04T20:39:21Z</time>
      </trkpt>
      <trkpt lat="50.30561" lon="3.31573">
        <ele>51.713</ele>
        <time>2011-06-04T20:39:29Z</time>
      </trkpt>
      <trkpt lat="50.30576" lon="3.31674">
        <ele>50.864</ele>
        <time>2011-06-04T20:39:38Z</time>
      </trkpt>
      <trkpt lat="50.30585" lon="3.31791">
        <ele>49.956</ele>
        <time>2011-06-04T20:39:48Z</time>
      </trkpt>
      <trkpt lat="50.30594" lon="3.31911">
        <ele>49.791</ele>
        <time>2011-06-04T20:39:58Z</time>
      </trkpt>
      <trkpt lat="50.30611" lon="3.3205">
        <ele>48.935</ele>
        <time>2011-06-04T20:40:10Z</time>
      </trkpt>
      <trkpt lat="50.3063" lon="3.32179">
        <ele>48.544</ele>
        <time>2011-06-04T20:40:21Z</time>
      </trkpt>
      <trkpt lat="50.30647" lon="3.32259">
        <ele>49.359</ele>
        <time>2011-06-04T20:40:28Z</time>
      </trkpt>
      <trkpt lat="50.30671" lon="3.32376">
        <ele>48.983</ele>
        <time>2011-06-04T20:40:39Z</time>
      </trkpt>
      <trkpt lat="50.30693" lon="3.32469">
        <ele>49.729</ele>
        <time>2011-06-04T20:40:48Z</time>
      </trkpt>
      <trkpt lat="50.30709" lon="3.3253">
        <ele>49.475</ele>
        <time>2011-06-04T20:40:54Z</time>
      </trkpt>
      <trkpt lat="50.30708" lon="3.3258">
        <ele>49.523</ele>
        <time>2011-06-04T20:40:59Z</time>
      </trkpt>
      <trkpt lat="50.30693" lon="3.32601">
        <ele>49.101</ele>
        <time>2011-06-04T20:41:02Z</time>
      </trkpt>
      <trkpt lat="50.30686" lon="3.32606">
        <ele>49.106</ele>
        <time>2011-06-04T20:41:03Z</time>
      </trkpt>
      <trkpt lat="50.30666" lon="3.3262">
        <ele>49.093</ele>
        <time>2011-06-04T20:41:06Z</time>
      </trkpt>
      <trkpt lat="50.30643" lon="3.32649">
        <ele>49.04</ele>
        <time>2011-06-04T20:41:10Z</time>
      </trkpt>
      <trkpt lat="50.30596" lon="3.32744">
        <ele>47.397</ele>
        <time>2011-06-04T20:41:20Z</time>
      </trkpt>
      <trkpt lat="50.30564" lon="3.3281">
        <ele>47.305</ele>
        <time>2011-06-04T20:41:27Z</time>
      </trkpt>
      <trkpt lat="50.30542" lon="3.3283">
        <ele>46.63</ele>
        <time>2011-06-04T20:41:31Z</time>
      </trkpt>
      <trkpt lat="50.30535" lon="3.32827">
        <ele>46.497</ele>
        <time>2011-06-04T20:41:32Z</time>
      </trkpt>
      <trkpt lat="50.30482" lon="3.32789">
        <ele>46.032</ele>
        <time>2011-06-04T20:41:40Z</time>
      </trkpt>
      <trkpt lat="50.30408" lon="3.32734">
        <ele>45.642</ele>
        <time>2011-06-04T20:41:51Z</time>
      </trkpt>
      <trkpt lat="50.30348" lon="3.32691">
        <ele>45.405</ele>
        <time>2011-06-04T20:42:00Z</time>
      </trkpt>
      <trkpt lat="50.30281" lon="3.32641">
        <ele>44.907</ele>
        <time>2011-06-04T20:42:10Z</time>
      </trkpt>
      <trkpt lat="50.30275" lon="3.32637">
        <ele>44.792</ele>
        <time>2011-06-04T20:42:11Z</time>
      </trkpt>
      <trkpt lat="50.30258" lon="3.32641">
        <ele>44.337</ele>
        <time>2011-06-04T20:42:14Z</time>
      </trkpt>
      <trkpt lat="50.30254" lon="3.32667">
        <ele>44.395</ele>
        <time>2011-06-04T20:42:17Z</time>
      </trkpt>
      <trkpt lat="50.30253" lon="3.32766">
        <ele>44.365</ele>
        <time>2011-06-04T20:42:27Z</time>
      </trkpt>
      <trkpt lat="50.30253" lon="3.32858">
        <ele>44.084</ele>
        <time>2011-06-04T20:42:36Z</time>
      </trkpt>
      <trkpt lat="50.30254" lon="3.32961">
        <ele>44.236</ele>
        <time>2011-06-04T20:42:46Z</time>
      </trkpt>
      <trkpt lat="50.30247" lon="3.32976">
        <ele>43.555</ele>
        <time>2011-06-04T20:42:49Z</time>
      </trkpt>
      <trkpt lat="50.30243" lon="3.32976">
        <ele>43.494</ele>
        <time>2011-06-04T20:42:50Z</time>
      </trkpt>
      <trkpt lat="50.30226" lon="3.32975">
        <ele>43.671</ele>
        <time>2011-06-04T20:42:53Z</time>
      </trkpt>
      <trkpt lat="50.30213" lon="3.32977">
        <ele>44.001</ele>
        <time>2011-06-04T20:42:55Z</time>
      </trkpt>
      <trkpt lat="50.30193" lon="3.32999">
        <ele>43.585</ele>
        <time>2011-06-04T20:42:59Z</time>
      </trkpt>
      <trkpt lat="50.30191" lon="3.3302">
        <ele>43.713</ele>
        <time>2011-06-04T20:43:01Z</time>
      </trkpt>
      <trkpt lat="50.30192" lon="3.33115">
        <ele>43.18</ele>
        <time>2011-06-04T20:43:10Z</time>
      </trkpt>
      <trkpt lat="50.30197" lon="3.33231">
        <ele>43.507</ele>
        <time>2011-06-04T20:43:21Z</time>
      </trkpt>
      <trkpt lat="50.30205" lon="3.33303">
        <ele>42.751</ele>
        <time>2011-06-04T20:43:28Z</time>
      </trkpt>
      <trkpt lat="50.30221" lon="3.33391">
        <ele>43.217</ele>
        <time>2011-06-04T20:43:37Z</time>
      </trkpt>
      <trkpt lat="50.30224" lon="3.3341">
        <ele>43.2</ele>
        <time>2011-06-04T20:43:39Z</time>
      </trkpt>
      <trkpt lat="50.30237" lon="3.33445">
        <ele>43.167</ele>
        <time>2011-06-04T20:43:43Z</time>
      </trkpt>
      <trkpt lat="50.30258" lon="3.33499">
        <ele>43.164</ele>
        <time>2011-06-04T20:43:49Z</time>
      </trkpt>
      <trkpt lat="50.30265" lon="3.33526">
        <ele>43.178</ele>
        <time>2011-06-04T20:43:52Z</time>
      </trkpt>
      <trkpt lat="50.30274" lon="3.33591">
        <ele>43.17</ele>
        <time>2011-06-04T20:43:59Z</time>
      </trkpt>
      <trkpt lat="50.30287" lon="3.33643">
        <ele>43.363</ele>
        <time>2011-06-04T20:44:05Z</time>
      </trkpt>
      <trkpt lat="50.30295" lon="3.33681">
        <ele>43.211</ele>
        <time>2011-06-04T20:44:09Z</time>
      </trkpt>
      <trkpt lat="50.30302" lon="3.33703">
        <ele>42.996</ele>
        <time>2011-06-04T20:44:12Z</time>
      </trkpt>
      <trkpt lat="50.30305" lon="3.33726">
        <ele>42.54</ele>
        <time>2011-06-04T20:44:16Z</time>
      </trkpt>
      <trkpt lat="50.30301" lon="3.33733">
        <ele>42.433</ele>
        <time>2011-06-04T20:44:18Z</time>
      </trkpt>
      <trkpt lat="50.30277" lon="3.33762">
        <ele>42.296</ele>
        <time>2011-06-04T20:44:26Z</time>
      </trkpt>
      <trkpt lat="50.30265" lon="3.33772">
        <ele>42.312</ele>
        <time>2011-06-04T20:44:30Z</time>
      </trkpt>
      <trkpt lat="50.30248" lon="3.33793">
        <ele>42.016</ele>
        <time>2011-06-04T20:44:36Z</time>
      </trkpt>
      <trkpt lat="50.30239" lon="3.33804">
        <ele>41.809</ele>
        <time>2011-06-04T20:44:40Z</time>
      </trkpt>
      <trkpt lat="50.30234" lon="3.33817">
        <ele>41.669</ele>
        <time>2011-06-04T20:44:45Z</time>
      </trkpt>
      <trkpt lat="50.30241" lon="3.33827">
        <ele>43.203</ele>
        <time>2011-06-04T20:44:50Z</time>
      </trkpt>
      <trkpt lat="50.3025" lon="3.3383">
        <ele>43.81</ele>
        <time>2011-06-04T20:44:54Z</time>
      </trkpt>
      <trkpt lat="50.3028" lon="3.33835">
        <ele>43.454</ele>
        <time>2011-06-04T20:45:00Z</time>
      </trkpt>
      <trkpt lat="50.30291" lon="3.33838">
        <ele>43.335</ele>
        <time>2011-06-04T20:45:02Z</time>
      </trkpt>
      <trkpt lat="50.30307" lon="3.33846">
        <ele>43.114</ele>
        <time>2011-06-04T20:45:05Z</time>
      </trkpt>
      <trkpt lat="50.30351" lon="3.33893">
        <ele>42.853</ele>
        <time>2011-06-04T20:45:14Z</time>
      </trkpt>
      <trkpt lat="50.3037" lon="3.33917">
        <ele>42.251</ele>
        <time>2011-06-04T20:45:18Z</time>
      </trkpt>
      <trkpt lat="50.30388" lon="3.3394">
        <ele>41.838</ele>
        <time>2011-06-04T20:45:23Z</time>
      </trkpt>
      <trkpt lat="50.30401" lon="3.33954">
        <ele>41.415</ele>
        <time>2011-06-04T20:45:27Z</time>
      </trkpt>
      <trkpt lat="50.30421" lon="3.33983">
        <ele>41.761</ele>
        <time>2011-06-04T20:45:32Z</time>
      </trkpt>
      <trkpt lat="50.30462" lon="3.34043">
        <ele>42.097</ele>
        <time>2011-06-04T20:45:41Z</time>
      </trkpt>
      <trkpt lat="50.30476" lon="3.3406">
        <ele>42.272</ele>
        <time>2011-06-04T20:45:44Z</time>
      </trkpt>
      <trkpt lat="50.30484" lon="3.3408">
        <ele>42.542</ele>
        <time>2011-06-04T20:45:48Z</time>
      </trkpt>
      <trkpt lat="50.30478" lon="3.34078">
        <ele>42.494</ele>
        <time>2011-06-04T20:45:51Z</time>
      </trkpt>
      <trkpt lat="50.30471" lon="3.34069">
        <ele>42.662</ele>
        <time>2011-06-04T20:45:54Z</time>
      </trkpt>
      <trkpt lat="50.30446" lon="3.34052">
        <ele>44.675</ele>
        <time>2011-06-04T20:46:02Z</time>
      </trkpt>
      <trkpt lat="50.30427" lon="3.34047">
        <ele>45.825</ele>
        <time>2011-06-04T20:46:08Z</time>
      </trkpt>
      <trkpt lat="50.30416" lon="3.34044">
        <ele>47.835</ele>
        <time>2011-06-04T20:46:13Z</time>
      </trkpt>
      <trkpt lat="50.30405" lon="3.34041">
        <ele>51.571</ele>
        <time>2011-06-04T20:46:21Z</time>
      </trkpt>
      <trkpt lat="50.30396" lon="3.3403">
        <ele>53.228</ele>
        <time>2011-06-04T20:46:27Z</time>
      </trkpt>
      <trkpt lat="50.30384" lon="3.34007">
        <ele>53.364</ele>
        <time>2011-06-04T20:46:33Z</time>
      </trkpt>
      <trkpt lat="50.30354" lon="3.33975">
        <ele>54.167</ele>
        <time>2011-06-04T20:46:43Z</time>
      </trkpt>
      <trkpt lat="50.30316" lon="3.33933">
        <ele>54.736</ele>
        <time>2011-06-04T20:46:54Z</time>
      </trkpt>
      <trkpt lat="50.30283" lon="3.33894">
        <ele>54.129</ele>
        <time>2011-06-04T20:47:02Z</time>
      </trkpt>
      <trkpt lat="50.30273" lon="3.33885">
        <ele>53.97</ele>
        <time>2011-06-04T20:47:04Z</time>
      </trkpt>
      <trkpt lat="50.30244" lon="3.33879">
        <ele>53.05</ele>
        <time>2011-06-04T20:47:09Z</time>
      </trkpt>
      <trkpt lat="50.30223" lon="3.33897">
        <ele>52.518</ele>
        <time>2011-06-04T20:47:13Z</time>
      </trkpt>
      <trkpt lat="50.30209" lon="3.33926">
        <ele>52.726</ele>
        <time>2011-06-04T20:47:17Z</time>
      </trkpt>
      <trkpt lat="50.30208" lon="3.33935">
        <ele>52.579</ele>
        <time>2011-06-04T20:47:18Z</time>
      </trkpt>
      <trkpt lat="50.30206" lon="3.33949">
        <ele>52.444</ele>
        <time>2011-06-04T20:47:20Z</time>
      </trkpt>
      <trkpt lat="50.30201" lon="3.33972">
        <ele>50.809</ele>
        <time>2011-06-04T20:47:26Z</time>
      </trkpt>
      <trkpt lat="50.30202" lon="3.33975">
        <ele>50.701</ele>
        <time>2011-06-04T20:47:27Z</time>
      </trkpt>
      <trkpt lat="50.30215" lon="3.34005">
        <ele>50.123</ele>
        <time>2011-06-04T20:47:32Z</time>
      </trkpt>
      <trkpt lat="50.30234" lon="3.34046">
        <ele>50.591</ele>
        <time>2011-06-04T20:47:37Z</time>
      </trkpt>
      <trkpt lat="50.30242" lon="3.34069">
        <ele>50.755</ele>
        <time>2011-06-04T20:47:40Z</time>
      </trkpt>
      <trkpt lat="50.3024" lon="3.34108">
        <ele>50.116</ele>
        <time>2011-06-04T20:47:45Z</time>
      </trkpt>
      <trkpt lat="50.30238" lon="3.34141">
        <ele>49.764</ele>
        <time>2011-06-04T20:47:49Z</time>
      </trkpt>
      <trkpt lat="50.30239" lon="3.34157">
        <ele>49.254</ele>
        <time>2011-06-04T20:47:51Z</time>
      </trkpt>
      <trkpt lat="50.30241" lon="3.34201">
        <ele>48.29</ele>
        <time>2011-06-04T20:47:56Z</time>
      </trkpt>
      <trkpt lat="50.30244" lon="3.34209">
        <ele>48.193</ele>
        <time>2011-06-04T20:47:57Z</time>
      </trkpt>
      <trkpt lat="50.30272" lon="3.34267">
        <ele>48.44</ele>
        <time>2011-06-04T20:48:04Z</time>
      </trkpt>
      <trkpt lat="50.30301" lon="3.34303">
        <ele>46.949</ele>
        <time>2011-06-04T20:48:10Z</time>
      </trkpt>
      <trkpt lat="50.30325" lon="3.34313">
        <ele>45.943</ele>
        <time>2011-06-04T20:48:15Z</time>
      </trkpt>
      <trkpt lat="50.3033" lon="3.34314">
        <ele>45.976</ele>
        <time>2011-06-04T20:48:16Z</time>
      </trkpt>
      <trkpt lat="50.30339" lon="3.34317">
        <ele>46.133</ele>
        <time>2011-06-04T20:48:18Z</time>
      </trkpt>
      <trkpt lat="50.3036" lon="3.34317">
        <ele>46.387</ele>
        <time>2011-06-04T20:48:22Z</time>
      </trkpt>
      <trkpt lat="50.30393" lon="3.34314">
        <ele>46.267</ele>
        <time>2011-06-04T20:48:28Z</time>
      </trkpt>
      <trkpt lat="50.30405" lon="3.34317">
        <ele>46.295</ele>
        <time>2011-06-04T20:48:30Z</time>
      </trkpt>
      <trkpt lat="50.30422" lon="3.34301">
        <ele>45.504</ele>
        <time>2011-06-04T20:48:34Z</time>
      </trkpt>
      <trkpt lat="50.3043" lon="3.34283">
        <ele>45.862</ele>
        <time>2011-06-04T20:48:37Z</time>
      </trkpt>
      <trkpt lat="50.30434" lon="3.34283">
        <ele>46.292</ele>
        <time>2011-06-04T20:48:40Z</time>
      </trkpt>
      <trkpt lat="50.30435" lon="3.3429">
        <ele>46.214</ele>
        <time>2011-06-04T20:48:44Z</time>
      </trkpt>
      <trkpt lat="50.30436" lon="3.34298">
        <ele>46.066</ele>
        <time>2011-06-04T20:48:46Z</time>
      </trkpt>
      <trkpt lat="50.30438" lon="3.34321">
        <ele>45.979</ele>
        <time>2011-06-04T20:48:50Z</time>
      </trkpt>
      <trkpt lat="50.30449" lon="3.34325">
        <ele>46.432</ele>
        <time>2011-06-04T20:48:53Z</time>
      </trkpt>
      <trkpt lat="50.30471" lon="3.3431">
        <ele>47.27</ele>
        <time>2011-06-04T20:48:59Z</time>
      </trkpt>
      <trkpt lat="50.30475" lon="3.34284">
        <ele>46.805</ele>
        <time>2011-06-04T20:49:03Z</time>
      </trkpt>
      <trkpt lat="50.30472" lon="3.3428">
        <ele>46.731</ele>
        <time>2011-06-04T20:49:06Z</time>
      </trkpt>
      <trkpt lat="50.30473" lon="3.34286">
        <ele>46.624</ele>
        <time>2011-06-04T20:49:09Z</time>
      </trkpt>
      <trkpt lat="50.30473" lon="3.34286">
        <ele>46.602</ele>
        <time>2011-06-04T20:49:10Z</time>
      </trkpt>
      <trkpt lat="50.3047" lon="3.34274">
        <ele>46.667</ele>
        <time>2011-06-04T20:49:15Z</time>
      </trkpt>
      <trkpt lat="50.30472" lon="3.34261">
        <ele>46.557</ele>
        <time>2011-06-04T20:49:18Z</time>
      </trkpt>
      <trkpt lat="50.30483" lon="3.34258">
        <ele>46.313</ele>
        <time>2011-06-04T20:49:21Z</time>
      </trkpt>
      <trkpt lat="50.305" lon="3.3425">
        <ele>45.636</ele>
        <time>2011-06-04T20:49:25Z</time>
      </trkpt>
      <trkpt lat="50.30517" lon="3.34253">
        <ele>44.778</ele>
        <time>2011-06-04T20:49:29Z</time>
      </trkpt>
      <trkpt lat="50.30535" lon="3.34268">
        <ele>44.832</ele>
        <time>2011-06-04T20:49:34Z</time>
      </trkpt>
      <trkpt lat="50.30548" lon="3.34261">
        <ele>44.023</ele>
        <time>2011-06-04T20:49:38Z</time>
      </trkpt>
      <trkpt lat="50.30557" lon="3.34255">
        <ele>43.728</ele>
        <time>2011-06-04T20:49:40Z</time>
      </trkpt>
      <trkpt lat="50.30567" lon="3.34273">
        <ele>43.106</ele>
        <time>2011-06-04T20:49:44Z</time>
      </trkpt>
      <trkpt lat="50.30583" lon="3.34339">
        <ele>43.575</ele>
        <time>2011-06-04T20:49:52Z</time>
      </trkpt>
      <trkpt lat="50.30593" lon="3.34407">
        <ele>44.393</ele>
        <time>2011-06-04T20:50:00Z</time>
      </trkpt>
      <trkpt lat="50.30597" lon="3.34446">
        <ele>43.637</ele>
        <time>2011-06-04T20:50:04Z</time>
      </trkpt>
      <trkpt lat="50.30605" lon="3.34474">
        <ele>41.706</ele>
        <time>2011-06-04T20:50:08Z</time>
      </trkpt>
      <trkpt lat="50.30606" lon="3.34478">
        <ele>41.234</ele>
        <time>2011-06-04T20:50:11Z</time>
      </trkpt>
      <trkpt lat="50.30606" lon="3.3448">
        <ele>41.4</ele>
        <time>2011-06-04T20:50:14Z</time>
      </trkpt>
      <trkpt lat="50.3061" lon="3.34484">
        <ele>41.011</ele>
        <time>2011-06-04T20:50:20Z</time>
      </trkpt>
      <trkpt lat="50.3062" lon="3.34484">
        <ele>41.357</ele>
        <time>2011-06-04T20:50:25Z</time>
      </trkpt>
      <trkpt lat="50.30638" lon="3.34477">
        <ele>42.149</ele>
        <time>2011-06-04T20:50:30Z</time>
      </trkpt>
      <trkpt lat="50.30653" lon="3.34469">
        <ele>42.603</ele>
        <time>2011-06-04T20:50:34Z</time>
      </trkpt>
      <trkpt lat="50.30676" lon="3.3446">
        <ele>42.983</ele>
        <time>2011-06-04T20:50:39Z</time>
      </trkpt>
      <trkpt lat="50.30709" lon="3.34439">
        <ele>43.715</ele>
        <time>2011-06-04T20:50:46Z</time>
      </trkpt>
      <trkpt lat="50.30741" lon="3.34403">
        <ele>43.591</ele>
        <time>2011-06-04T20:50:53Z</time>
      </trkpt>
      <trkpt lat="50.30778" lon="3.34366">
        <ele>43.681</ele>
        <time>2011-06-04T20:51:01Z</time>
      </trkpt>
      <trkpt lat="50.30783" lon="3.34363">
        <ele>43.68</ele>
        <time>2011-06-04T20:51:02Z</time>
      </trkpt>
      <trkpt lat="50.30832" lon="3.34342">
        <ele>43.983</ele>
        <time>2011-06-04T20:51:11Z</time>
      </trkpt>
      <trkpt lat="50.30875" lon="3.34323">
        <ele>43.981</ele>
        <time>2011-06-04T20:51:19Z</time>
      </trkpt>
      <trkpt lat="50.30921" lon="3.34297">
        <ele>44.858</ele>
        <time>2011-06-04T20:51:28Z</time>
      </trkpt>
      <trkpt lat="50.30965" lon="3.34279">
        <ele>44.338</ele>
        <time>2011-06-04T20:51:36Z</time>
      </trkpt>
      <trkpt lat="50.31021" lon="3.3426">
        <ele>43.367</ele>
        <time>2011-06-04T20:51:46Z</time>
      </trkpt>
      <trkpt lat="50.31058" lon="3.34256">
        <ele>44.851</ele>
        <time>2011-06-04T20:51:53Z</time>
      </trkpt>
      <trkpt lat="50.31082" lon="3.34256">
        <ele>45.904</ele>
        <time>2011-06-04T20:51:58Z</time>
      </trkpt>
      <trkpt lat="50.31114" lon="3.34267">
        <ele>45.395</ele>
        <time>2011-06-04T20:52:04Z</time>
      </trkpt>
      <trkpt lat="50.31136" lon="3.34269">
        <ele>45.659</ele>
        <time>2011-06-04T20:52:08Z</time>
      </trkpt>
      <trkpt lat="50.31168" lon="3.34256">
        <ele>45.835</ele>
        <time>2011-06-04T20:52:14Z</time>
      </trkpt>
      <trkpt lat="50.31186" lon="3.34247">
        <ele>46.58</ele>
        <time>2011-06-04T20:52:18Z</time>
      </trkpt>
      <trkpt lat="50.312" lon="3.34251">
        <ele>47.402</ele>
        <time>2011-06-04T20:52:22Z</time>
      </trkpt>
      <trkpt lat="50.3121" lon="3.3428">
        <ele>48.326</ele>
        <time>2011-06-04T20:52:27Z</time>
      </trkpt>
      <trkpt lat="50.31221" lon="3.34341">
        <ele>48.709</ele>
        <time>2011-06-04T20:52:35Z</time>
      </trkpt>
      <trkpt lat="50.31235" lon="3.34413">
        <ele>47.466</ele>
        <time>2011-06-04T20:52:43Z</time>
      </trkpt>
      <trkpt lat="50.31244" lon="3.34454">
        <ele>46.931</ele>
        <time>2011-06-04T20:52:48Z</time>
      </trkpt>
      <trkpt lat="50.3126" lon="3.34467">
        <ele>46.901</ele>
        <time>2011-06-04T20:52:52Z</time>
      </trkpt>
      <trkpt lat="50.31265" lon="3.34464">
        <ele>46.973</ele>
        <time>2011-06-04T20:52:53Z</time>
      </trkpt>
      <trkpt lat="50.31319" lon="3.34427">
        <ele>46.873</ele>
        <time>2011-06-04T20:53:03Z</time>
      </trkpt>
      <trkpt lat="50.31371" lon="3.34398">
        <ele>47.164</ele>
        <time>2011-06-04T20:53:12Z</time>
      </trkpt>
      <trkpt lat="50.31383" lon="3.34403">
        <ele>46.76</ele>
        <time>2011-06-04T20:53:15Z</time>
      </trkpt>
      <trkpt lat="50.31385" lon="3.34409">
        <ele>46.619</ele>
        <time>2011-06-04T20:53:16Z</time>
      </trkpt>
      <trkpt lat="50.31393" lon="3.3445">
        <ele>47.37</ele>
        <time>2011-06-04T20:53:21Z</time>
      </trkpt>
      <trkpt lat="50.31401" lon="3.345">
        <ele>47.68</ele>
        <time>2011-06-04T20:53:27Z</time>
      </trkpt>
      <trkpt lat="50.31416" lon="3.34567">
        <ele>47.736</ele>
        <time>2011-06-04T20:53:35Z</time>
      </trkpt>
      <trkpt lat="50.3142" lon="3.34583">
        <ele>47.632</ele>
        <time>2011-06-04T20:53:37Z</time>
      </trkpt>
      <trkpt lat="50.31431" lon="3.34596">
        <ele>46.882</ele>
        <time>2011-06-04T20:53:41Z</time>
      </trkpt>
      <trkpt lat="50.31442" lon="3.34597">
        <ele>47.02</ele>
        <time>2011-06-04T20:53:44Z</time>
      </trkpt>
      <trkpt lat="50.31487" lon="3.34614">
        <ele>47.401</ele>
        <time>2011-06-04T20:53:53Z</time>
      </trkpt>
      <trkpt lat="50.31534" lon="3.34638">
        <ele>47.783</ele>
        <time>2011-06-04T20:54:02Z</time>
      </trkpt>
      <trkpt lat="50.31575" lon="3.34658">
        <ele>47.822</ele>
        <time>2011-06-04T20:54:10Z</time>
      </trkpt>
      <trkpt lat="50.31579" lon="3.3466">
        <ele>48.046</ele>
        <time>2011-06-04T20:54:11Z</time>
      </trkpt>
      <trkpt lat="50.31602" lon="3.34651">
        <ele>48.765</ele>
        <time>2011-06-04T20:54:16Z</time>
      </trkpt>
      <trkpt lat="50.31616" lon="3.34642">
        <ele>49.469</ele>
        <time>2011-06-04T20:54:19Z</time>
      </trkpt>
      <trkpt lat="50.31648" lon="3.34622">
        <ele>49.28</ele>
        <time>2011-06-04T20:54:25Z</time>
      </trkpt>
      <trkpt lat="50.31677" lon="3.34603">
        <ele>48.477</ele>
        <time>2011-06-04T20:54:31Z</time>
      </trkpt>
      <trkpt lat="50.31685" lon="3.34588">
        <ele>47.774</ele>
        <time>2011-06-04T20:54:35Z</time>
      </trkpt>
      <trkpt lat="50.31707" lon="3.34567">
        <ele>46.604</ele>
        <time>2011-06-04T20:54:41Z</time>
      </trkpt>
      <trkpt lat="50.31712" lon="3.34552">
        <ele>46.362</ele>
        <time>2011-06-04T20:54:45Z</time>
      </trkpt>
      <trkpt lat="50.31713" lon="3.34549">
        <ele>46.29</ele>
        <time>2011-06-04T20:54:46Z</time>
      </trkpt>
      <trkpt lat="50.31719" lon="3.34552">
        <ele>46.173</ele>
        <time>2011-06-04T20:54:50Z</time>
      </trkpt>
      <trkpt lat="50.31722" lon="3.34554">
        <ele>46.113</ele>
        <time>2011-06-04T20:54:53Z</time>
      </trkpt>
      <trkpt lat="50.31723" lon="3.34553">
        <ele>46.053</ele>
        <time>2011-06-04T20:54:55Z</time>
      </trkpt>
      <trkpt lat="50.31721" lon="3.34551">
        <ele>46.029</ele>
        <time>2011-06-04T20:54:58Z</time>
      </trkpt>
      <trkpt lat="50.31713" lon="3.3455">
        <ele>46.3</ele>
        <time>2011-06-04T20:55:02Z</time>
      </trkpt>
      <trkpt lat="50.31702" lon="3.3457">
        <ele>46.569</ele>
        <time>2011-06-04T20:55:07Z</time>
      </trkpt>
      <trkpt lat="50.31699" lon="3.34574">
        <ele>46.512</ele>
        <time>2011-06-04T20:55:08Z</time>
      </trkpt>
      <trkpt lat="50.3168" lon="3.34596">
        <ele>47.419</ele>
        <time>2011-06-04T20:55:14Z</time>
      </trkpt>
      <trkpt lat="50.31672" lon="3.34607">
        <ele>48.231</ele>
        <time>2011-06-04T20:55:18Z</time>
      </trkpt>
      <trkpt lat="50.31665" lon="3.34611">
        <ele>48.35</ele>
        <time>2011-06-04T20:55:20Z</time>
      </trkpt>
      <trkpt lat="50.31665" lon="3.34615">
        <ele>48.281</ele>
        <time>2011-06-04T20:55:24Z</time>
      </trkpt>
      <trkpt lat="50.31676" lon="3.34618">
        <ele>48.488</ele>
        <time>2011-06-04T20:55:28Z</time>
      </trkpt>
      <trkpt lat="50.31692" lon="3.34624">
        <ele>49.051</ele>
        <time>2011-06-04T20:55:31Z</time>
      </trkpt>
      <trkpt lat="50.31723" lon="3.34622">
        <ele>49.32</ele>
        <time>2011-06-04T20:55:37Z</time>
      </trkpt>
      <trkpt lat="50.31753" lon="3.34608">
        <ele>48.221</ele>
        <time>2011-06-04T20:55:43Z</time>
      </trkpt>
      <trkpt lat="50.31788" lon="3.34605">
        <ele>47.462</ele>
        <time>2011-06-04T20:55:49Z</time>
      </trkpt>
      <trkpt lat="50.31812" lon="3.34605">
        <ele>46.958</ele>
        <time>2011-06-04T20:55:53Z</time>
      </trkpt>
      <trkpt lat="50.31827" lon="3.34605">
        <ele>46.388</ele>
        <time>2011-06-04T20:55:55Z</time>
      </trkpt>
      <trkpt lat="50.31848" lon="3.34609">
        <ele>45.741</ele>
        <time>2011-06-04T20:55:58Z</time>
      </trkpt>
      <trkpt lat="50.31875" lon="3.34636">
        <ele>45.624</ele>
        <time>2011-06-04T20:56:03Z</time>
      </trkpt>
      <trkpt lat="50.3188" lon="3.34644">
        <ele>45.507</ele>
        <time>2011-06-04T20:56:04Z</time>
      </trkpt>
      <trkpt lat="50.31916" lon="3.34701">
        <ele>45.076</ele>
        <time>2011-06-04T20:56:12Z</time>
      </trkpt>
      <trkpt lat="50.31931" lon="3.34723">
        <ele>45.148</ele>
        <time>2011-06-04T20:56:15Z</time>
      </trkpt>
      <trkpt lat="50.31936" lon="3.3474">
        <ele>44.859</ele>
        <time>2011-06-04T20:56:19Z</time>
      </trkpt>
      <trkpt lat="50.31931" lon="3.34742">
        <ele>44.955</ele>
        <time>2011-06-04T20:56:21Z</time>
      </trkpt>
      <trkpt lat="50.31924" lon="3.34749">
        <ele>46.666</ele>
        <time>2011-06-04T20:56:27Z</time>
      </trkpt>
      <trkpt lat="50.3192" lon="3.34761">
        <ele>48.713</ele>
        <time>2011-06-04T20:56:38Z</time>
      </trkpt>
      <trkpt lat="50.31919" lon="3.34772">
        <ele>50.416</ele>
        <time>2011-06-04T20:56:44Z</time>
      </trkpt>
      <trkpt lat="50.31918" lon="3.34777">
        <ele>51.187</ele>
        <time>2011-06-04T20:56:47Z</time>
      </trkpt>
      <trkpt lat="50.31918" lon="3.3478">
        <ele>51.346</ele>
        <time>2011-06-04T20:56:49Z</time>
      </trkpt>
      <trkpt lat="50.31916" lon="3.34787">
        <ele>51.64</ele>
        <time>2011-06-04T20:56:53Z</time>
      </trkpt>
      <trkpt lat="50.31916" lon="3.34797">
        <ele>52.205</ele>
        <time>2011-06-04T20:56:58Z</time>
      </trkpt>
      <trkpt lat="50.31918" lon="3.348">
        <ele>52.186</ele>
        <time>2011-06-04T20:57:01Z</time>
      </trkpt>
      <trkpt lat="50.31913" lon="3.34813">
        <ele>52.272</ele>
        <time>2011-06-04T20:57:07Z</time>
      </trkpt>
      <trkpt lat="50.31913" lon="3.34816">
        <ele>52.278</ele>
        <time>2011-06-04T20:57:08Z</time>
      </trkpt>
      <trkpt lat="50.31912" lon="3.34835">
        <ele>52.23</ele>
        <time>2011-06-04T20:57:13Z</time>
      </trkpt>
      <trkpt lat="50.3191" lon="3.3484">
        <ele>52.166</ele>
        <time>2011-06-04T20:57:15Z</time>
      </trkpt>
      <trkpt lat="50.31904" lon="3.34856">
        <ele>52.025</ele>
        <time>2011-06-04T20:57:20Z</time>
      </trkpt>
      <trkpt lat="50.31905" lon="3.34862">
        <ele>52.067</ele>
        <time>2011-06-04T20:57:23Z</time>
      </trkpt>
      <trkpt lat="50.3191" lon="3.34865">
        <ele>51.828</ele>
        <time>2011-06-04T20:57:30Z</time>
      </trkpt>
      <trkpt lat="50.31912" lon="3.34861">
        <ele>51.971</ele>
        <time>2011-06-04T20:57:36Z</time>
      </trkpt>
      <trkpt lat="50.31912" lon="3.34858">
        <ele>52.041</ele>
        <time>2011-06-04T20:57:41Z</time>
      </trkpt>
      <trkpt lat="50.31911" lon="3.34853">
        <ele>52.455</ele>
        <time>2011-06-04T20:57:45Z</time>
      </trkpt>
      <trkpt lat="50.31901" lon="3.3487">
        <ele>52.651</ele>
        <time>2011-06-04T20:58:06Z</time>
      </trkpt>
      <trkpt lat="50.31896" lon="3.34875">
        <ele>53.244</ele>
        <time>2011-06-04T20:58:08Z</time>
      </trkpt>
      <trkpt lat="50.31888" lon="3.34882">
        <ele>53.96</ele>
        <time>2011-06-04T20:58:11Z</time>
      </trkpt>
      <trkpt lat="50.31872" lon="3.3489">
        <ele>55.052</ele>
        <time>2011-06-04T20:58:16Z</time>
      </trkpt>
      <trkpt lat="50.31867" lon="3.34889">
        <ele>55.238</ele>
        <time>2011-06-04T20:58:17Z</time>
      </trkpt>
      <trkpt lat="50.31855" lon="3.3488">
        <ele>55.244</ele>
        <time>2011-06-04T20:58:20Z</time>
      </trkpt>
      <trkpt lat="50.31836" lon="3.34863">
        <ele>55.883</ele>
        <time>2011-06-04T20:58:25Z</time>
      </trkpt>
      <trkpt lat="50.31809" lon="3.3486">
        <ele>55.107</ele>
        <time>2011-06-04T20:58:31Z</time>
      </trkpt>
      <trkpt lat="50.31805" lon="3.34857">
        <ele>54.732</ele>
        <time>2011-06-04T20:58:32Z</time>
      </trkpt>
      <trkpt lat="50.31774" lon="3.34842">
        <ele>50.679</ele>
        <time>2011-06-04T20:58:38Z</time>
      </trkpt>
      <trkpt lat="50.31772" lon="3.3484">
        <ele>50.299</ele>
        <time>2011-06-04T20:58:39Z</time>
      </trkpt>
      <trkpt lat="50.31779" lon="3.34832">
        <ele>49.711</ele>
        <time>2011-06-04T20:58:44Z</time>
      </trkpt>
      <trkpt lat="50.31786" lon="3.3483">
        <ele>49.664</ele>
        <time>2011-06-04T20:58:46Z</time>
      </trkpt>
      <trkpt lat="50.31799" lon="3.34824">
        <ele>49.615</ele>
        <time>2011-06-04T20:58:49Z</time>
      </trkpt>
      <trkpt lat="50.31818" lon="3.34816">
        <ele>52.148</ele>
        <time>2011-06-04T20:58:54Z</time>
      </trkpt>
      <trkpt lat="50.31828" lon="3.34812">
        <ele>54.561</ele>
        <time>2011-06-04T20:58:59Z</time>
      </trkpt>
      <trkpt lat="50.3183" lon="3.34811">
        <ele>54.837</ele>
        <time>2011-06-04T20:59:00Z</time>
      </trkpt>
      <trkpt lat="50.31832" lon="3.3481">
        <ele>55.891</ele>
        <time>2011-06-04T20:59:02Z</time>
      </trkpt>
      <trkpt lat="50.31842" lon="3.34804">
        <ele>58.074</ele>
        <time>2011-06-04T20:59:08Z</time>
      </trkpt>
      <trkpt lat="50.31849" lon="3.34799">
        <ele>59.52</ele>
        <time>2011-06-04T20:59:12Z</time>
      </trkpt>
      <trkpt lat="50.31856" lon="3.34789">
        <ele>61.208</ele>
        <time>2011-06-04T20:59:17Z</time>
      </trkpt>
      <trkpt lat="50.31863" lon="3.34766">
        <ele>62.775</ele>
        <time>2011-06-04T20:59:24Z</time>
      </trkpt>
      <trkpt lat="50.31867" lon="3.34739">
        <ele>62.393</ele>
        <time>2011-06-04T20:59:30Z</time>
      </trkpt>
      <trkpt lat="50.31864" lon="3.34707">
        <ele>62.164</ele>
        <time>2011-06-04T20:59:36Z</time>
      </trkpt>
      <trkpt lat="50.31854" lon="3.34692">
        <ele>63.017</ele>
        <time>2011-06-04T20:59:40Z</time>
      </trkpt>
      <trkpt lat="50.3184" lon="3.34695">
        <ele>63.712</ele>
        <time>2011-06-04T20:59:44Z</time>
      </trkpt>
      <trkpt lat="50.31825" lon="3.34711">
        <ele>63.921</ele>
        <time>2011-06-04T20:59:49Z</time>
      </trkpt>
      <trkpt lat="50.31818" lon="3.34726">
        <ele>64.047</ele>
        <time>2011-06-04T20:59:53Z</time>
      </trkpt>
      <trkpt lat="50.3181" lon="3.34735">
        <ele>63.001</ele>
        <time>2011-06-04T20:59:57Z</time>
      </trkpt>
      <trkpt lat="50.31793" lon="3.3474">
        <ele>59.148</ele>
        <time>2011-06-04T21:00:02Z</time>
      </trkpt>
      <trkpt lat="50.31768" lon="3.34744">
        <ele>52.945</ele>
        <time>2011-06-04T21:00:06Z</time>
      </trkpt>
      <trkpt lat="50.31753" lon="3.34746">
        <ele>51.909</ele>
        <time>2011-06-04T21:00:08Z</time>
      </trkpt>
      <trkpt lat="50.31748" lon="3.34746">
        <ele>51.315</ele>
        <time>2011-06-04T21:00:09Z</time>
      </trkpt>
      <trkpt lat="50.31739" lon="3.34742">
        <ele>50.473</ele>
        <time>2011-06-04T21:00:11Z</time>
      </trkpt>
      <trkpt lat="50.3173" lon="3.34728">
        <ele>50.179</ele>
        <time>2011-06-04T21:00:14Z</time>
      </trkpt>
      <trkpt lat="50.3172" lon="3.34716">
        <ele>50.84</ele>
        <time>2011-06-04T21:00:17Z</time>
      </trkpt>
      <trkpt lat="50.31718" lon="3.34712">
        <ele>51.596</ele>
        <time>2011-06-04T21:00:19Z</time>
      </trkpt>
      <trkpt lat="50.31713" lon="3.34717">
        <ele>51.761</ele>
        <time>2011-06-04T21:00:22Z</time>
      </trkpt>
      <trkpt lat="50.31708" lon="3.34729">
        <ele>52.038</ele>
        <time>2011-06-04T21:00:25Z</time>
      </trkpt>
      <trkpt lat="50.31698" lon="3.34753">
        <ele>51.158</ele>
        <time>2011-06-04T21:00:30Z</time>
      </trkpt>
      <trkpt lat="50.317" lon="3.34776">
        <ele>50.655</ele>
        <time>2011-06-04T21:00:34Z</time>
      </trkpt>
      <trkpt lat="50.3171" lon="3.34802">
        <ele>49.705</ele>
        <time>2011-06-04T21:00:39Z</time>
      </trkpt>
      <trkpt lat="50.31733" lon="3.3485">
        <ele>49.146</ele>
        <time>2011-06-04T21:00:46Z</time>
      </trkpt>
      <trkpt lat="50.31752" lon="3.34903">
        <ele>49.379</ele>
        <time>2011-06-04T21:00:53Z</time>
      </trkpt>
      <trkpt lat="50.31768" lon="3.34952">
        <ele>50.043</ele>
        <time>2011-06-04T21:00:59Z</time>
      </trkpt>
      <trkpt lat="50.31773" lon="3.34979">
        <ele>49.889</ele>
        <time>2011-06-04T21:01:03Z</time>
      </trkpt>
      <trkpt lat="50.31786" lon="3.34989">
        <ele>49.406</ele>
        <time>2011-06-04T21:01:07Z</time>
      </trkpt>
      <trkpt lat="50.3179" lon="3.34988">
        <ele>49.678</ele>
        <time>2011-06-04T21:01:08Z</time>
      </trkpt>
      <trkpt lat="50.31825" lon="3.3497">
        <ele>50.209</ele>
        <time>2011-06-04T21:01:16Z</time>
      </trkpt>
      <trkpt lat="50.31857" lon="3.34952">
        <ele>51.459</ele>
        <time>2011-06-04T21:01:22Z</time>
      </trkpt>
      <trkpt lat="50.31894" lon="3.34931">
        <ele>50.021</ele>
        <time>2011-06-04T21:01:29Z</time>
      </trkpt>
      <trkpt lat="50.31905" lon="3.34927">
        <ele>49.696</ele>
        <time>2011-06-04T21:01:33Z</time>
      </trkpt>
      <trkpt lat="50.31913" lon="3.34937">
        <ele>49.733</ele>
        <time>2011-06-04T21:01:36Z</time>
      </trkpt>
      <trkpt lat="50.31924" lon="3.34953">
        <ele>49.74</ele>
        <time>2011-06-04T21:01:39Z</time>
      </trkpt>
      <trkpt lat="50.31936" lon="3.34955">
        <ele>49.099</ele>
        <time>2011-06-04T21:01:43Z</time>
      </trkpt>
      <trkpt lat="50.31944" lon="3.3493">
        <ele>49.31</ele>
        <time>2011-06-04T21:01:47Z</time>
      </trkpt>
      <trkpt lat="50.31953" lon="3.34923">
        <ele>49.396</ele>
        <time>2011-06-04T21:01:49Z</time>
      </trkpt>
      <trkpt lat="50.31993" lon="3.34899">
        <ele>48.559</ele>
        <time>2011-06-04T21:01:57Z</time>
      </trkpt>
      <trkpt lat="50.31998" lon="3.34897">
        <ele>48.544</ele>
        <time>2011-06-04T21:01:58Z</time>
      </trkpt>
      <trkpt lat="50.32011" lon="3.3491">
        <ele>48.37</ele>
        <time>2011-06-04T21:02:02Z</time>
      </trkpt>
      <trkpt lat="50.32016" lon="3.34913">
        <ele>48.442</ele>
        <time>2011-06-04T21:02:04Z</time>
      </trkpt>
      <trkpt lat="50.32042" lon="3.34903">
        <ele>48.187</ele>
        <time>2011-06-04T21:02:10Z</time>
      </trkpt>
      <trkpt lat="50.32066" lon="3.34898">
        <ele>49.776</ele>
        <time>2011-06-04T21:02:15Z</time>
      </trkpt>
      <trkpt lat="50.32085" lon="3.34892">
        <ele>49.183</ele>
        <time>2011-06-04T21:02:19Z</time>
      </trkpt>
      <trkpt lat="50.32119" lon="3.34871">
        <ele>48.855</ele>
        <time>2011-06-04T21:02:25Z</time>
      </trkpt>
      <trkpt lat="50.32137" lon="3.34853">
        <ele>48.427</ele>
        <time>2011-06-04T21:02:29Z</time>
      </trkpt>
      <trkpt lat="50.32153" lon="3.3484">
        <ele>48.27</ele>
        <time>2011-06-04T21:02:33Z</time>
      </trkpt>
      <trkpt lat="50.32167" lon="3.34844">
        <ele>48.375</ele>
        <time>2011-06-04T21:02:37Z</time>
      </trkpt>
      <trkpt lat="50.32181" lon="3.34858">
        <ele>49.412</ele>
        <time>2011-06-04T21:02:42Z</time>
      </trkpt>
      <trkpt lat="50.32191" lon="3.34849">
        <ele>49.273</ele>
        <time>2011-06-04T21:02:45Z</time>
      </trkpt>
      <trkpt lat="50.322" lon="3.34817">
        <ele>49.689</ele>
        <time>2011-06-04T21:02:50Z</time>
      </trkpt>
      <trkpt lat="50.32204" lon="3.34764">
        <ele>49.865</ele>
        <time>2011-06-04T21:02:57Z</time>
      </trkpt>
      <trkpt lat="50.32208" lon="3.34727">
        <ele>49.695</ele>
        <time>2011-06-04T21:03:02Z</time>
      </trkpt>
      <trkpt lat="50.32211" lon="3.34705">
        <ele>49.744</ele>
        <time>2011-06-04T21:03:05Z</time>
      </trkpt>
      <trkpt lat="50.32203" lon="3.34678">
        <ele>49.948</ele>
        <time>2011-06-04T21:03:09Z</time>
      </trkpt>
      <trkpt lat="50.32199" lon="3.34653">
        <ele>48.235</ele>
        <time>2011-06-04T21:03:14Z</time>
      </trkpt>
      <trkpt lat="50.32197" lon="3.3464">
        <ele>46.846</ele>
        <time>2011-06-04T21:03:16Z</time>
      </trkpt>
      <trkpt lat="50.32202" lon="3.34629">
        <ele>45.115</ele>
        <time>2011-06-04T21:03:19Z</time>
      </trkpt>
      <trkpt lat="50.32215" lon="3.34634">
        <ele>44.873</ele>
        <time>2011-06-04T21:03:23Z</time>
      </trkpt>
      <trkpt lat="50.32221" lon="3.34641">
        <ele>45.236</ele>
        <time>2011-06-04T21:03:25Z</time>
      </trkpt>
      <trkpt lat="50.32236" lon="3.34669">
        <ele>46.007</ele>
        <time>2011-06-04T21:03:31Z</time>
      </trkpt>
      <trkpt lat="50.32238" lon="3.34674">
        <ele>45.993</ele>
        <time>2011-06-04T21:03:32Z</time>
      </trkpt>
      <trkpt lat="50.32247" lon="3.34687">
        <ele>46.077</ele>
        <time>2011-06-04T21:03:35Z</time>
      </trkpt>
      <trkpt lat="50.32258" lon="3.34718">
        <ele>46.759</ele>
        <time>2011-06-04T21:03:40Z</time>
      </trkpt>
      <trkpt lat="50.32274" lon="3.34758">
        <ele>47.347</ele>
        <time>2011-06-04T21:03:46Z</time>
      </trkpt>
      <trkpt lat="50.32278" lon="3.34765">
        <ele>47.485</ele>
        <time>2011-06-04T21:03:47Z</time>
      </trkpt>
      <trkpt lat="50.32286" lon="3.34787">
        <ele>47.976</ele>
        <time>2011-06-04T21:03:50Z</time>
      </trkpt>
      <trkpt lat="50.32287" lon="3.34813">
        <ele>48.099</ele>
        <time>2011-06-04T21:03:54Z</time>
      </trkpt>
      <trkpt lat="50.32285" lon="3.3482">
        <ele>48.068</ele>
        <time>2011-06-04T21:03:55Z</time>
      </trkpt>
      <trkpt lat="50.32277" lon="3.34863">
        <ele>48.348</ele>
        <time>2011-06-04T21:04:01Z</time>
      </trkpt>
      <trkpt lat="50.32273" lon="3.34888">
        <ele>48.286</ele>
        <time>2011-06-04T21:04:05Z</time>
      </trkpt>
      <trkpt lat="50.32273" lon="3.34896">
        <ele>48.279</ele>
        <time>2011-06-04T21:04:06Z</time>
      </trkpt>
      <trkpt lat="50.32272" lon="3.34908">
        <ele>49.209</ele>
        <time>2011-06-04T21:04:08Z</time>
      </trkpt>
      <trkpt lat="50.32267" lon="3.34914">
        <ele>51.056</ele>
        <time>2011-06-04T21:04:11Z</time>
      </trkpt>
      <trkpt lat="50.32258" lon="3.34915">
        <ele>51.57</ele>
        <time>2011-06-04T21:04:15Z</time>
      </trkpt>
      <trkpt lat="50.32256" lon="3.34916">
        <ele>51.6</ele>
        <time>2011-06-04T21:04:16Z</time>
      </trkpt>
      <trkpt lat="50.32247" lon="3.3492">
        <ele>51.731</ele>
        <time>2011-06-04T21:04:21Z</time>
      </trkpt>
      <trkpt lat="50.32248" lon="3.3492">
        <ele>51.817</ele>
        <time>2011-06-04T21:04:22Z</time>
      </trkpt>
      <trkpt lat="50.32248" lon="3.34915">
        <ele>51.259</ele>
        <time>2011-06-04T21:04:41Z</time>
      </trkpt>
      <trkpt lat="50.32249" lon="3.34915">
        <ele>52.562</ele>
        <time>2011-06-04T21:04:43Z</time>
      </trkpt>
      <trkpt lat="50.32249" lon="3.34916">
        <ele>54.725</ele>
        <time>2011-06-04T21:04:46Z</time>
      </trkpt>
      <trkpt lat="50.32241" lon="3.34916">
        <ele>51.947</ele>
        <time>2011-06-04T21:04:56Z</time>
      </trkpt>
      <trkpt lat="50.32234" lon="3.3492">
        <ele>51.813</ele>
        <time>2011-06-04T21:04:58Z</time>
      </trkpt>
      <trkpt lat="50.32225" lon="3.34923">
        <ele>51.441</ele>
        <time>2011-06-04T21:05:00Z</time>
      </trkpt>
      <trkpt lat="50.32212" lon="3.3493">
        <ele>50.785</ele>
        <time>2011-06-04T21:05:04Z</time>
      </trkpt>
      <trkpt lat="50.32212" lon="3.34929">
        <ele>50.3</ele>
        <time>2011-06-04T21:05:06Z</time>
      </trkpt>
      <trkpt lat="50.32211" lon="3.34926">
        <ele>50.8</ele>
        <time>2011-06-04T21:05:23Z</time>
      </trkpt>
      <trkpt lat="50.32206" lon="3.34915">
        <ele>48.974</ele>
        <time>2011-06-04T21:05:28Z</time>
      </trkpt>
      <trkpt lat="50.32195" lon="3.34909">
        <ele>46.134</ele>
        <time>2011-06-04T21:05:33Z</time>
      </trkpt>
      <trkpt lat="50.32192" lon="3.3491">
        <ele>45.388</ele>
        <time>2011-06-04T21:05:36Z</time>
      </trkpt>
      <trkpt lat="50.32184" lon="3.34927">
        <ele>45.955</ele>
        <time>2011-06-04T21:05:44Z</time>
      </trkpt>
      <trkpt lat="50.32175" lon="3.34922">
        <ele>47.435</ele>
        <time>2011-06-04T21:05:48Z</time>
      </trkpt>
      <trkpt lat="50.32173" lon="3.34922">
        <ele>47.703</ele>
        <time>2011-06-04T21:05:49Z</time>
      </trkpt>
      <trkpt lat="50.32164" lon="3.34929">
        <ele>48.54</ele>
        <time>2011-06-04T21:05:54Z</time>
      </trkpt>
      <trkpt lat="50.3216" lon="3.34939">
        <ele>48.367</ele>
        <time>2011-06-04T21:05:58Z</time>
      </trkpt>
      <trkpt lat="50.32159" lon="3.34946">
        <ele>48.393</ele>
        <time>2011-06-04T21:06:00Z</time>
      </trkpt>
      <trkpt lat="50.32151" lon="3.34965">
        <ele>48.213</ele>
        <time>2011-06-04T21:06:06Z</time>
      </trkpt>
      <trkpt lat="50.32147" lon="3.3498">
        <ele>47.961</ele>
        <time>2011-06-04T21:06:11Z</time>
      </trkpt>
      <trkpt lat="50.32142" lon="3.34985">
        <ele>47.772</ele>
        <time>2011-06-04T21:06:14Z</time>
      </trkpt>
      <trkpt lat="50.32141" lon="3.34986">
        <ele>47.764</ele>
        <time>2011-06-04T21:06:15Z</time>
      </trkpt>
      <trkpt lat="50.32131" lon="3.3499">
        <ele>47.704</ele>
        <time>2011-06-04T21:06:32Z</time>
      </trkpt>
      <trkpt lat="50.32123" lon="3.35001">
        <ele>47.811</ele>
        <time>2011-06-04T21:06:37Z</time>
      </trkpt>
      <trkpt lat="50.3212" lon="3.35006">
        <ele>47.772</ele>
        <time>2011-06-04T21:06:39Z</time>
      </trkpt>
      <trkpt lat="50.32115" lon="3.35025">
        <ele>47.782</ele>
        <time>2011-06-04T21:06:43Z</time>
      </trkpt>
      <trkpt lat="50.32102" lon="3.3505">
        <ele>47.839</ele>
        <time>2011-06-04T21:06:47Z</time>
      </trkpt>
      <trkpt lat="50.3209" lon="3.35089">
        <ele>48.132</ele>
        <time>2011-06-04T21:06:52Z</time>
      </trkpt>
      <trkpt lat="50.32087" lon="3.35107">
        <ele>48.097</ele>
        <time>2011-06-04T21:06:54Z</time>
      </trkpt>
      <trkpt lat="50.32082" lon="3.35132">
        <ele>47.369</ele>
        <time>2011-06-04T21:06:58Z</time>
      </trkpt>
      <trkpt lat="50.3207" lon="3.3516">
        <ele>47.682</ele>
        <time>2011-06-04T21:07:05Z</time>
      </trkpt>
      <trkpt lat="50.32061" lon="3.35181">
        <ele>47.959</ele>
        <time>2011-06-04T21:07:11Z</time>
      </trkpt>
      <trkpt lat="50.32053" lon="3.35184">
        <ele>48.118</ele>
        <time>2011-06-04T21:07:15Z</time>
      </trkpt>
      <trkpt lat="50.32032" lon="3.35167">
        <ele>48.371</ele>
        <time>2011-06-04T21:07:21Z</time>
      </trkpt>
      <trkpt lat="50.32023" lon="3.3516">
        <ele>48.501</ele>
        <time>2011-06-04T21:07:23Z</time>
      </trkpt>
      <trkpt lat="50.31995" lon="3.35138">
        <ele>49.731</ele>
        <time>2011-06-04T21:07:30Z</time>
      </trkpt>
      <trkpt lat="50.31978" lon="3.35131">
        <ele>50.118</ele>
        <time>2011-06-04T21:07:35Z</time>
      </trkpt>
      <trkpt lat="50.31969" lon="3.35126">
        <ele>50.402</ele>
        <time>2011-06-04T21:07:38Z</time>
      </trkpt>
      <trkpt lat="50.31966" lon="3.35136">
        <ele>51.217</ele>
        <time>2011-06-04T21:07:42Z</time>
      </trkpt>
      <trkpt lat="50.31963" lon="3.35153">
        <ele>52.561</ele>
        <time>2011-06-04T21:07:46Z</time>
      </trkpt>
      <trkpt lat="50.31964" lon="3.35174">
        <ele>53.747</ele>
        <time>2011-06-04T21:07:52Z</time>
      </trkpt>
      <trkpt lat="50.31963" lon="3.35179">
        <ele>53.507</ele>
        <time>2011-06-04T21:07:53Z</time>
      </trkpt>
      <trkpt lat="50.31948" lon="3.35225">
        <ele>51.09</ele>
        <time>2011-06-04T21:07:59Z</time>
      </trkpt>
      <trkpt lat="50.31945" lon="3.35234">
        <ele>50.63</ele>
        <time>2011-06-04T21:08:00Z</time>
      </trkpt>
      <trkpt lat="50.3193" lon="3.35277">
        <ele>49.992</ele>
        <time>2011-06-04T21:08:05Z</time>
      </trkpt>
      <trkpt lat="50.31907" lon="3.35342">
        <ele>49.334</ele>
        <time>2011-06-04T21:08:12Z</time>
      </trkpt>
      <trkpt lat="50.31888" lon="3.35422">
        <ele>48.869</ele>
        <time>2011-06-04T21:08:20Z</time>
      </trkpt>
      <trkpt lat="50.31885" lon="3.35486">
        <ele>47.611</ele>
        <time>2011-06-04T21:08:26Z</time>
      </trkpt>
      <trkpt lat="50.31884" lon="3.35559">
        <ele>47.484</ele>
        <time>2011-06-04T21:08:33Z</time>
      </trkpt>
      <trkpt lat="50.31892" lon="3.35644">
        <ele>46.541</ele>
        <time>2011-06-04T21:08:41Z</time>
      </trkpt>
      <trkpt lat="50.31895" lon="3.35738">
        <ele>46.14</ele>
        <time>2011-06-04T21:08:50Z</time>
      </trkpt>
      <trkpt lat="50.31896" lon="3.3582">
        <ele>46.367</ele>
        <time>2011-06-04T21:08:58Z</time>
      </trkpt>
      <trkpt lat="50.31892" lon="3.35891">
        <ele>46.032</ele>
        <time>2011-06-04T21:09:05Z</time>
      </trkpt>
      <trkpt lat="50.31898" lon="3.35918">
        <ele>45.333</ele>
        <time>2011-06-04T21:09:09Z</time>
      </trkpt>
      <trkpt lat="50.31907" lon="3.35936">
        <ele>44.934</ele>
        <time>2011-06-04T21:09:13Z</time>
      </trkpt>
      <trkpt lat="50.31909" lon="3.35956">
        <ele>44.836</ele>
        <time>2011-06-04T21:09:16Z</time>
      </trkpt>
      <trkpt lat="50.3191" lon="3.36023">
        <ele>44.877</ele>
        <time>2011-06-04T21:09:25Z</time>
      </trkpt>
      <trkpt lat="50.31909" lon="3.36084">
        <ele>45.264</ele>
        <time>2011-06-04T21:09:33Z</time>
      </trkpt>
      <trkpt lat="50.31908" lon="3.36092">
        <ele>45.269</ele>
        <time>2011-06-04T21:09:34Z</time>
      </trkpt>
      <trkpt lat="50.31915" lon="3.3612">
        <ele>44.897</ele>
        <time>2011-06-04T21:09:38Z</time>
      </trkpt>
      <trkpt lat="50.31929" lon="3.36143">
        <ele>44.912</ele>
        <time>2011-06-04T21:09:42Z</time>
      </trkpt>
      <trkpt lat="50.31947" lon="3.36159">
        <ele>45.089</ele>
        <time>2011-06-04T21:09:46Z</time>
      </trkpt>
      <trkpt lat="50.31961" lon="3.36165">
        <ele>45.164</ele>
        <time>2011-06-04T21:09:49Z</time>
      </trkpt>
      <trkpt lat="50.31973" lon="3.3617">
        <ele>44.84</ele>
        <time>2011-06-04T21:09:53Z</time>
      </trkpt>
      <trkpt lat="50.31985" lon="3.36164">
        <ele>44.915</ele>
        <time>2011-06-04T21:09:57Z</time>
      </trkpt>
      <trkpt lat="50.31993" lon="3.36161">
        <ele>44.956</ele>
        <time>2011-06-04T21:09:59Z</time>
      </trkpt>
      <trkpt lat="50.32007" lon="3.36157">
        <ele>45.16</ele>
        <time>2011-06-04T21:10:02Z</time>
      </trkpt>
      <trkpt lat="50.32017" lon="3.36153">
        <ele>45.094</ele>
        <time>2011-06-04T21:10:04Z</time>
      </trkpt>
      <trkpt lat="50.32048" lon="3.3613">
        <ele>45.431</ele>
        <time>2011-06-04T21:10:11Z</time>
      </trkpt>
      <trkpt lat="50.32073" lon="3.36099">
        <ele>45.465</ele>
        <time>2011-06-04T21:10:17Z</time>
      </trkpt>
      <trkpt lat="50.32098" lon="3.36068">
        <ele>45.74</ele>
        <time>2011-06-04T21:10:23Z</time>
      </trkpt>
      <trkpt lat="50.32115" lon="3.36039">
        <ele>46.175</ele>
        <time>2011-06-04T21:10:28Z</time>
      </trkpt>
      <trkpt lat="50.32124" lon="3.36031">
        <ele>46.24</ele>
        <time>2011-06-04T21:10:30Z</time>
      </trkpt>
      <trkpt lat="50.32135" lon="3.36018">
        <ele>46.421</ele>
        <time>2011-06-04T21:10:33Z</time>
      </trkpt>
      <trkpt lat="50.32146" lon="3.36005">
        <ele>46.171</ele>
        <time>2011-06-04T21:10:36Z</time>
      </trkpt>
      <trkpt lat="50.32163" lon="3.3599">
        <ele>46.507</ele>
        <time>2011-06-04T21:10:40Z</time>
      </trkpt>
      <trkpt lat="50.32194" lon="3.35963">
        <ele>47.578</ele>
        <time>2011-06-04T21:10:48Z</time>
      </trkpt>
      <trkpt lat="50.322" lon="3.35958">
        <ele>47.168</ele>
        <time>2011-06-04T21:10:50Z</time>
      </trkpt>
      <trkpt lat="50.32206" lon="3.35937">
        <ele>46.464</ele>
        <time>2011-06-04T21:10:54Z</time>
      </trkpt>
      <trkpt lat="50.32206" lon="3.35914">
        <ele>46.37</ele>
        <time>2011-06-04T21:10:58Z</time>
      </trkpt>
      <trkpt lat="50.32209" lon="3.35888">
        <ele>46.416</ele>
        <time>2011-06-04T21:11:02Z</time>
      </trkpt>
      <trkpt lat="50.32213" lon="3.35854">
        <ele>46.829</ele>
        <time>2011-06-04T21:11:07Z</time>
      </trkpt>
      <trkpt lat="50.32213" lon="3.35827">
        <ele>47.416</ele>
        <time>2011-06-04T21:11:11Z</time>
      </trkpt>
      <trkpt lat="50.32212" lon="3.35791">
        <ele>47.062</ele>
        <time>2011-06-04T21:11:16Z</time>
      </trkpt>
      <trkpt lat="50.32212" lon="3.35776">
        <ele>46.987</ele>
        <time>2011-06-04T21:11:18Z</time>
      </trkpt>
      <trkpt lat="50.32212" lon="3.35763">
        <ele>47.136</ele>
        <time>2011-06-04T21:11:20Z</time>
      </trkpt>
      <trkpt lat="50.32205" lon="3.3574">
        <ele>47.334</ele>
        <time>2011-06-04T21:11:24Z</time>
      </trkpt>
      <trkpt lat="50.3221" lon="3.35712">
        <ele>47.397</ele>
        <time>2011-06-04T21:11:28Z</time>
      </trkpt>
      <trkpt lat="50.32209" lon="3.35697">
        <ele>47.698</ele>
        <time>2011-06-04T21:11:30Z</time>
      </trkpt>
      <trkpt lat="50.32206" lon="3.3568">
        <ele>47.799</ele>
        <time>2011-06-04T21:11:32Z</time>
      </trkpt>
      <trkpt lat="50.32206" lon="3.35644">
        <ele>48.332</ele>
        <time>2011-06-04T21:11:37Z</time>
      </trkpt>
      <trkpt lat="50.32193" lon="3.35627">
        <ele>47.842</ele>
        <time>2011-06-04T21:11:40Z</time>
      </trkpt>
      <trkpt lat="50.32188" lon="3.35624">
        <ele>47.52</ele>
        <time>2011-06-04T21:11:41Z</time>
      </trkpt>
      <trkpt lat="50.32165" lon="3.35592">
        <ele>45.416</ele>
        <time>2011-06-04T21:11:47Z</time>
      </trkpt>
      <trkpt lat="50.3216" lon="3.35584">
        <ele>44.775</ele>
        <time>2011-06-04T21:11:49Z</time>
      </trkpt>
      <trkpt lat="50.32144" lon="3.35585">
        <ele>43.953</ele>
        <time>2011-06-04T21:11:53Z</time>
      </trkpt>
      <trkpt lat="50.3213" lon="3.35583">
        <ele>43.821</ele>
        <time>2011-06-04T21:11:56Z</time>
      </trkpt>
      <trkpt lat="50.32112" lon="3.35574">
        <ele>43.851</ele>
        <time>2011-06-04T21:12:01Z</time>
      </trkpt>
      <trkpt lat="50.32105" lon="3.35571">
        <ele>43.883</ele>
        <time>2011-06-04T21:12:03Z</time>
      </trkpt>
      <trkpt lat="50.32096" lon="3.35551">
        <ele>44.056</ele>
        <time>2011-06-04T21:12:08Z</time>
      </trkpt>
      <trkpt lat="50.32088" lon="3.3553">
        <ele>44.701</ele>
        <time>2011-06-04T21:12:12Z</time>
      </trkpt>
      <trkpt lat="50.32085" lon="3.35518">
        <ele>45.245</ele>
        <time>2011-06-04T21:12:14Z</time>
      </trkpt>
      <trkpt lat="50.3207" lon="3.35493">
        <ele>46.31</ele>
        <time>2011-06-04T21:12:19Z</time>
      </trkpt>
      <trkpt lat="50.32061" lon="3.35488">
        <ele>46.145</ele>
        <time>2011-06-04T21:12:21Z</time>
      </trkpt>
      <trkpt lat="50.32049" lon="3.35467">
        <ele>46.095</ele>
        <time>2011-06-04T21:12:26Z</time>
      </trkpt>
      <trkpt lat="50.32052" lon="3.35458">
        <ele>46.1</ele>
        <time>2011-06-04T21:12:28Z</time>
      </trkpt>
      <trkpt lat="50.32061" lon="3.35439">
        <ele>46.719</ele>
        <time>2011-06-04T21:12:33Z</time>
      </trkpt>
      <trkpt lat="50.32062" lon="3.35435">
        <ele>46.835</ele>
        <time>2011-06-04T21:12:34Z</time>
      </trkpt>
      <trkpt lat="50.32054" lon="3.35421">
        <ele>46.834</ele>
        <time>2011-06-04T21:12:37Z</time>
      </trkpt>
      <trkpt lat="50.32046" lon="3.35403">
        <ele>45.495</ele>
        <time>2011-06-04T21:12:40Z</time>
      </trkpt>
      <trkpt lat="50.32042" lon="3.35388">
        <ele>45.391</ele>
        <time>2011-06-04T21:12:43Z</time>
      </trkpt>
      <trkpt lat="50.32027" lon="3.35381">
        <ele>46.24</ele>
        <time>2011-06-04T21:12:47Z</time>
      </trkpt>
      <trkpt lat="50.32015" lon="3.35373">
        <ele>46.952</ele>
        <time>2011-06-04T21:12:50Z</time>
      </trkpt>
      <trkpt lat="50.32011" lon="3.35353">
        <ele>46.865</ele>
        <time>2011-06-04T21:12:53Z</time>
      </trkpt>
      <trkpt lat="50.3201" lon="3.35338">
        <ele>46.798</ele>
        <time>2011-06-04T21:12:55Z</time>
      </trkpt>
      <trkpt lat="50.32006" lon="3.35293">
        <ele>47.222</ele>
        <time>2011-06-04T21:13:01Z</time>
      </trkpt>
      <trkpt lat="50.32001" lon="3.35279">
        <ele>47.361</ele>
        <time>2011-06-04T21:13:03Z</time>
      </trkpt>
      <trkpt lat="50.31988" lon="3.35236">
        <ele>47.672</ele>
        <time>2011-06-04T21:13:09Z</time>
      </trkpt>
      <trkpt lat="50.31989" lon="3.35229">
        <ele>47.693</ele>
        <time>2011-06-04T21:13:10Z</time>
      </trkpt>
      <trkpt lat="50.3199" lon="3.35214">
        <ele>47.926</ele>
        <time>2011-06-04T21:13:12Z</time>
      </trkpt>
      <trkpt lat="50.32" lon="3.35186">
        <ele>47.858</ele>
        <time>2011-06-04T21:13:17Z</time>
      </trkpt>
      <trkpt lat="50.32005" lon="3.35189">
        <ele>47.699</ele>
        <time>2011-06-04T21:13:19Z</time>
      </trkpt>
      <trkpt lat="50.32037" lon="3.35219">
        <ele>47.295</ele>
        <time>2011-06-04T21:13:26Z</time>
      </trkpt>
      <trkpt lat="50.32047" lon="3.35226">
        <ele>47.483</ele>
        <time>2011-06-04T21:13:28Z</time>
      </trkpt>
      <trkpt lat="50.32074" lon="3.35229">
        <ele>47.222</ele>
        <time>2011-06-04T21:13:33Z</time>
      </trkpt>
      <trkpt lat="50.32079" lon="3.35228">
        <ele>46.93</ele>
        <time>2011-06-04T21:13:34Z</time>
      </trkpt>
      <trkpt lat="50.32087" lon="3.35224">
        <ele>45.688</ele>
        <time>2011-06-04T21:13:36Z</time>
      </trkpt>
      <trkpt lat="50.32112" lon="3.35222">
        <ele>45.524</ele>
        <time>2011-06-04T21:13:41Z</time>
      </trkpt>
      <trkpt lat="50.32122" lon="3.35242">
        <ele>45.319</ele>
        <time>2011-06-04T21:13:46Z</time>
      </trkpt>
      <trkpt lat="50.32138" lon="3.35272">
        <ele>45.48</ele>
        <time>2011-06-04T21:13:52Z</time>
      </trkpt>
      <trkpt lat="50.32154" lon="3.3529">
        <ele>46.307</ele>
        <time>2011-06-04T21:13:56Z</time>
      </trkpt>
      <trkpt lat="50.32172" lon="3.35311">
        <ele>46.96</ele>
        <time>2011-06-04T21:14:01Z</time>
      </trkpt>
      <trkpt lat="50.32197" lon="3.35331">
        <ele>45.995</ele>
        <time>2011-06-04T21:14:08Z</time>
      </trkpt>
      <trkpt lat="50.32202" lon="3.35334">
        <ele>45.2</ele>
        <time>2011-06-04T21:14:09Z</time>
      </trkpt>
      <trkpt lat="50.3222" lon="3.35353">
        <ele>44.689</ele>
        <time>2011-06-04T21:14:13Z</time>
      </trkpt>
      <trkpt lat="50.32237" lon="3.3537">
        <ele>44.136</ele>
        <time>2011-06-04T21:14:17Z</time>
      </trkpt>
      <trkpt lat="50.32294" lon="3.35383">
        <ele>44.724</ele>
        <time>2011-06-04T21:14:29Z</time>
      </trkpt>
      <trkpt lat="50.32299" lon="3.35385">
        <ele>47.415</ele>
        <time>2011-06-04T21:14:33Z</time>
      </trkpt>
      <trkpt lat="50.32298" lon="3.35384">
        <ele>47.478</ele>
        <time>2011-06-04T21:14:34Z</time>
      </trkpt>
      <trkpt lat="50.32301" lon="3.35384">
        <ele>48.622</ele>
        <time>2011-06-04T21:14:40Z</time>
      </trkpt>
      <trkpt lat="50.32303" lon="3.35382">
        <ele>48.834</ele>
        <time>2011-06-04T21:14:44Z</time>
      </trkpt>
      <trkpt lat="50.32306" lon="3.35372">
        <ele>48.486</ele>
        <time>2011-06-04T21:15:34Z</time>
      </trkpt>
      <trkpt lat="50.32307" lon="3.35368">
        <ele>48.476</ele>
        <time>2011-06-04T21:15:35Z</time>
      </trkpt>
      <trkpt lat="50.32309" lon="3.35362">
        <ele>48.577</ele>
        <time>2011-06-04T21:15:37Z</time>
      </trkpt>
      <trkpt lat="50.32309" lon="3.35359">
        <ele>48.76</ele>
        <time>2011-06-04T21:15:38Z</time>
      </trkpt>
      <trkpt lat="50.32314" lon="3.35345">
        <ele>49.142</ele>
        <time>2011-06-04T21:15:43Z</time>
      </trkpt>
      <trkpt lat="50.32322" lon="3.35339">
        <ele>49.393</ele>
        <time>2011-06-04T21:15:47Z</time>
      </trkpt>
      <trkpt lat="50.32324" lon="3.35337">
        <ele>49.275</ele>
        <time>2011-06-04T21:15:48Z</time>
      </trkpt>
      <trkpt lat="50.32336" lon="3.35312">
        <ele>49.117</ele>
        <time>2011-06-04T21:15:54Z</time>
      </trkpt>
      <trkpt lat="50.32338" lon="3.35307">
        <ele>49.075</ele>
        <time>2011-06-04T21:15:55Z</time>
      </trkpt>
      <trkpt lat="50.32352" lon="3.35266">
        <ele>49.14</ele>
        <time>2011-06-04T21:16:02Z</time>
      </trkpt>
      <trkpt lat="50.32358" lon="3.35226">
        <ele>49.271</ele>
        <time>2011-06-04T21:16:08Z</time>
      </trkpt>
      <trkpt lat="50.32358" lon="3.35159">
        <ele>49.667</ele>
        <time>2011-06-04T21:16:17Z</time>
      </trkpt>
      <trkpt lat="50.32359" lon="3.35118">
        <ele>49.71</ele>
        <time>2011-06-04T21:16:22Z</time>
      </trkpt>
      <trkpt lat="50.3236" lon="3.35058">
        <ele>49.614</ele>
        <time>2011-06-04T21:16:29Z</time>
      </trkpt>
      <trkpt lat="50.32361" lon="3.34976">
        <ele>48.855</ele>
        <time>2011-06-04T21:16:38Z</time>
      </trkpt>
      <trkpt lat="50.32362" lon="3.34934">
        <ele>47.555</ele>
        <time>2011-06-04T21:16:43Z</time>
      </trkpt>
      <trkpt lat="50.32362" lon="3.34927">
        <ele>46.666</ele>
        <time>2011-06-04T21:16:46Z</time>
      </trkpt>
      <trkpt lat="50.32368" lon="3.34924">
        <ele>46.311</ele>
        <time>2011-06-04T21:16:50Z</time>
      </trkpt>
      <trkpt lat="50.32375" lon="3.34929">
        <ele>46.461</ele>
        <time>2011-06-04T21:16:53Z</time>
      </trkpt>
      <trkpt lat="50.32391" lon="3.34964">
        <ele>46.747</ele>
        <time>2011-06-04T21:17:00Z</time>
      </trkpt>
      <trkpt lat="50.32401" lon="3.34991">
        <ele>47.166</ele>
        <time>2011-06-04T21:17:05Z</time>
      </trkpt>
      <trkpt lat="50.32415" lon="3.35023">
        <ele>47.385</ele>
        <time>2011-06-04T21:17:11Z</time>
      </trkpt>
      <trkpt lat="50.32428" lon="3.35053">
        <ele>47.942</ele>
        <time>2011-06-04T21:17:17Z</time>
      </trkpt>
      <trkpt lat="50.32441" lon="3.35083">
        <ele>48.295</ele>
        <time>2011-06-04T21:17:23Z</time>
      </trkpt>
      <trkpt lat="50.32452" lon="3.35107">
        <ele>48.518</ele>
        <time>2011-06-04T21:17:28Z</time>
      </trkpt>
      <trkpt lat="50.32464" lon="3.35131">
        <ele>48.938</ele>
        <time>2011-06-04T21:17:33Z</time>
      </trkpt>
      <trkpt lat="50.32479" lon="3.35157">
        <ele>49.286</ele>
        <time>2011-06-04T21:17:38Z</time>
      </trkpt>
      <trkpt lat="50.32501" lon="3.35198">
        <ele>49.375</ele>
        <time>2011-06-04T21:17:45Z</time>
      </trkpt>
      <trkpt lat="50.32512" lon="3.35224">
        <ele>49.373</ele>
        <time>2011-06-04T21:17:49Z</time>
      </trkpt>
      <trkpt lat="50.32523" lon="3.35248">
        <ele>49.461</ele>
        <time>2011-06-04T21:17:53Z</time>
      </trkpt>
      <trkpt lat="50.32531" lon="3.35267">
        <ele>49.182</ele>
        <time>2011-06-04T21:17:56Z</time>
      </trkpt>
      <trkpt lat="50.32539" lon="3.35306">
        <ele>48.635</ele>
        <time>2011-06-04T21:18:02Z</time>
      </trkpt>
      <trkpt lat="50.32536" lon="3.35345">
        <ele>48.779</ele>
        <time>2011-06-04T21:18:09Z</time>
      </trkpt>
      <trkpt lat="50.32535" lon="3.35358">
        <ele>48.705</ele>
        <time>2011-06-04T21:18:13Z</time>
      </trkpt>
      <trkpt lat="50.32535" lon="3.35358">
        <ele>48.78</ele>
        <time>2011-06-04T21:18:15Z</time>
      </trkpt>
      <trkpt lat="50.32537" lon="3.35344">
        <ele>48.752</ele>
        <time>2011-06-04T21:18:22Z</time>
      </trkpt>
      <trkpt lat="50.3254" lon="3.35341">
        <ele>48.466</ele>
        <time>2011-06-04T21:18:26Z</time>
      </trkpt>
      <trkpt lat="50.32542" lon="3.35341">
        <ele>48.869</ele>
        <time>2011-06-04T21:18:30Z</time>
      </trkpt>
      <trkpt lat="50.32544" lon="3.35342">
        <ele>48.94</ele>
        <time>2011-06-04T21:18:33Z</time>
      </trkpt>
      <trkpt lat="50.32546" lon="3.35342">
        <ele>49.099</ele>
        <time>2011-06-04T21:18:38Z</time>
      </trkpt>
      <trkpt lat="50.32556" lon="3.35322">
        <ele>48.418</ele>
        <time>2011-06-04T21:18:52Z</time>
      </trkpt>
      <trkpt lat="50.32566" lon="3.3528">
        <ele>49.465</ele>
        <time>2011-06-04T21:18:58Z</time>
      </trkpt>
      <trkpt lat="50.32582" lon="3.35225">
        <ele>49.053</ele>
        <time>2011-06-04T21:19:04Z</time>
      </trkpt>
      <trkpt lat="50.32598" lon="3.35163">
        <ele>47.878</ele>
        <time>2011-06-04T21:19:09Z</time>
      </trkpt>
      <trkpt lat="50.32615" lon="3.3507">
        <ele>46.726</ele>
        <time>2011-06-04T21:19:15Z</time>
      </trkpt>
      <trkpt lat="50.3263" lon="3.3496">
        <ele>44.293</ele>
        <time>2011-06-04T21:19:22Z</time>
      </trkpt>
      <trkpt lat="50.32644" lon="3.34877">
        <ele>44.106</ele>
        <time>2011-06-04T21:19:27Z</time>
      </trkpt>
      <trkpt lat="50.32666" lon="3.34719">
        <ele>43.298</ele>
        <time>2011-06-04T21:19:36Z</time>
      </trkpt>
      <trkpt lat="50.32671" lon="3.34609">
        <ele>42.807</ele>
        <time>2011-06-04T21:19:42Z</time>
      </trkpt>
      <trkpt lat="50.32676" lon="3.34487">
        <ele>42.617</ele>
        <time>2011-06-04T21:19:49Z</time>
      </trkpt>
      <trkpt lat="50.32682" lon="3.3441">
        <ele>42.911</ele>
        <time>2011-06-04T21:19:54Z</time>
      </trkpt>
      <trkpt lat="50.32693" lon="3.34369">
        <ele>42.759</ele>
        <time>2011-06-04T21:19:57Z</time>
      </trkpt>
      <trkpt lat="50.32702" lon="3.34342">
        <ele>41.807</ele>
        <time>2011-06-04T21:20:01Z</time>
      </trkpt>
      <trkpt lat="50.32706" lon="3.34338">
        <ele>41.707</ele>
        <time>2011-06-04T21:20:05Z</time>
      </trkpt>
      <trkpt lat="50.32712" lon="3.34332">
        <ele>41.68</ele>
        <time>2011-06-04T21:20:09Z</time>
      </trkpt>
      <trkpt lat="50.32718" lon="3.34323">
        <ele>41.726</ele>
        <time>2011-06-04T21:20:11Z</time>
      </trkpt>
      <trkpt lat="50.32725" lon="3.34291">
        <ele>42.309</ele>
        <time>2011-06-04T21:20:15Z</time>
      </trkpt>
      <trkpt lat="50.32727" lon="3.34272">
        <ele>42.462</ele>
        <time>2011-06-04T21:20:17Z</time>
      </trkpt>
      <trkpt lat="50.32744" lon="3.34216">
        <ele>42.266</ele>
        <time>2011-06-04T21:20:23Z</time>
      </trkpt>
      <trkpt lat="50.32767" lon="3.34133">
        <ele>42.766</ele>
        <time>2011-06-04T21:20:31Z</time>
      </trkpt>
      <trkpt lat="50.32783" lon="3.3407">
        <ele>43.09</ele>
        <time>2011-06-04T21:20:37Z</time>
      </trkpt>
      <trkpt lat="50.32798" lon="3.33982">
        <ele>43.36</ele>
        <time>2011-06-04T21:20:45Z</time>
      </trkpt>
      <trkpt lat="50.32812" lon="3.3389">
        <ele>43.745</ele>
        <time>2011-06-04T21:20:53Z</time>
      </trkpt>
      <trkpt lat="50.32826" lon="3.33791">
        <ele>44.569</ele>
        <time>2011-06-04T21:21:02Z</time>
      </trkpt>
      <trkpt lat="50.32828" lon="3.3378">
        <ele>44.617</ele>
        <time>2011-06-04T21:21:03Z</time>
      </trkpt>
      <trkpt lat="50.32842" lon="3.33747">
        <ele>45.091</ele>
        <time>2011-06-04T21:21:07Z</time>
      </trkpt>
      <trkpt lat="50.32861" lon="3.33739">
        <ele>45.388</ele>
        <time>2011-06-04T21:21:10Z</time>
      </trkpt>
      <trkpt lat="50.32888" lon="3.33743">
        <ele>45.863</ele>
        <time>2011-06-04T21:21:14Z</time>
      </trkpt>
      <trkpt lat="50.32894" lon="3.33747">
        <ele>46.043</ele>
        <time>2011-06-04T21:21:15Z</time>
      </trkpt>
      <trkpt lat="50.32944" lon="3.33788">
        <ele>46.113</ele>
        <time>2011-06-04T21:21:23Z</time>
      </trkpt>
      <trkpt lat="50.32996" lon="3.33833">
        <ele>45.731</ele>
        <time>2011-06-04T21:21:31Z</time>
      </trkpt>
      <trkpt lat="50.33061" lon="3.33883">
        <ele>46.188</ele>
        <time>2011-06-04T21:21:41Z</time>
      </trkpt>
      <trkpt lat="50.33117" lon="3.33927">
        <ele>45.004</ele>
        <time>2011-06-04T21:21:50Z</time>
      </trkpt>
      <trkpt lat="50.3316" lon="3.33958">
        <ele>45.057</ele>
        <time>2011-06-04T21:21:57Z</time>
      </trkpt>
      <trkpt lat="50.33181" lon="3.3395">
        <ele>44.462</ele>
        <time>2011-06-04T21:22:01Z</time>
      </trkpt>
      <trkpt lat="50.33194" lon="3.33911">
        <ele>44.128</ele>
        <time>2011-06-04T21:22:05Z</time>
      </trkpt>
      <trkpt lat="50.33216" lon="3.33824">
        <ele>44.603</ele>
        <time>2011-06-04T21:22:12Z</time>
      </trkpt>
      <trkpt lat="50.33229" lon="3.33745">
        <ele>45.056</ele>
        <time>2011-06-04T21:22:19Z</time>
      </trkpt>
      <trkpt lat="50.3323" lon="3.33735">
        <ele>45.051</ele>
        <time>2011-06-04T21:22:20Z</time>
      </trkpt>
      <trkpt lat="50.33241" lon="3.33713">
        <ele>44.437</ele>
        <time>2011-06-04T21:22:24Z</time>
      </trkpt>
      <trkpt lat="50.3325" lon="3.33709">
        <ele>44.646</ele>
        <time>2011-06-04T21:22:26Z</time>
      </trkpt>
      <trkpt lat="50.33288" lon="3.33703">
        <ele>44.403</ele>
        <time>2011-06-04T21:22:35Z</time>
      </trkpt>
      <trkpt lat="50.33297" lon="3.33706">
        <ele>44.223</ele>
        <time>2011-06-04T21:22:38Z</time>
      </trkpt>
      <trkpt lat="50.33304" lon="3.33717">
        <ele>44.136</ele>
        <time>2011-06-04T21:22:43Z</time>
      </trkpt>
      <trkpt lat="50.33308" lon="3.33714">
        <ele>43.786</ele>
        <time>2011-06-04T21:22:48Z</time>
      </trkpt>
      <trkpt lat="50.33308" lon="3.33714">
        <ele>44.366</ele>
        <time>2011-06-04T21:22:49Z</time>
      </trkpt>
    </trkseg>
  </trk>
</gpx>